Observation data for Dozier on 03/01/2021      Previous  Date  Next       Current Mesonet Observations  Soil Data  Daily Summary Page  Observations in Plain Language
KDO1 010600Z 02007KT 04/M08 A3022 RMK A01 T00441075  RH  042%=      5-min Rain = 0
KDO1 010601Z 02007KT 04/M08 A3021 RMK A01 T00441075  RH  042%=      5-min Rain = 0
KDO1 010602Z 02009KT 04/M08 A3021 RMK A01 T00441075  RH  042%=      5-min Rain = 0
KDO1 010603Z 02009KT 04/M08 A3021 RMK A01 T00441075  RH  042%=      5-min Rain = 0
KDO1 010604Z 02009KT 04/M08 A3021 RMK A01 T00441076  RH  041%=      5-min Rain = 0
KDO1 010605Z 02007KT 04/M08 A302 RMK A01 T00441075  RH  042%=      5-min Rain = 0
KDO1 010606Z 02008KT 04/M08 A302 RMK A01 T00431075  RH  042%=      5-min Rain = 0
KDO1 010607Z 03009KT 04/M07 A302 RMK A01 T00441074  RH  042%=      5-min Rain = 0
KDO1 010608Z 02009KT 04/M08 A302 RMK A01 T00431075  RH  042%=      5-min Rain = 0
KDO1 010609Z 02007KT 04/M08 A302 RMK A01 T00431075  RH  042%=      5-min Rain = 0
KDO1 010610Z 01008KT 04/M08 A3021 RMK A01 T00431075  RH  042%=      5-min Rain = 0
KDO1 010611Z 01009KT 04/M08 A3021 RMK A01 T00431075  RH  042%=      5-min Rain = 0
KDO1 010612Z 02008KT 04/M08 A3021 RMK A01 T00431075  RH  042%=      5-min Rain = 0
KDO1 010613Z 02009KT 04/M08 A3021 RMK A01 T00431075  RH  042%=      5-min Rain = 0
KDO1 010614Z 02009KT 04/M08 A3021 RMK A01 T00421075  RH  042%=      5-min Rain = 0
KDO1 010615Z 01007KT 04/M08 A3021 RMK A01 T00421075  RH  042%=      5-min Rain = 0
KDO1 010616Z 01007KT 04/M08 A3021 RMK A01 T00421075  RH  042%=      5-min Rain = 0
KDO1 010617Z 01007KT 04/M08 A3022 RMK A01 T00421075  RH  042%=      5-min Rain = 0
KDO1 010618Z 00007KT 04/M08 A3022 RMK A01 T00421075  RH  042%=      5-min Rain = 0
KDO1 010619Z 36008KT 04/M07 A3022 RMK A01 T00421074  RH  042%=      5-min Rain = 0
KDO1 010620Z 01008KT 04/M08 A3022 RMK A01 T00421075  RH  042%=      5-min Rain = 0
KDO1 010621Z 01007KT 04/M08 A3022 RMK A01 T00421075  RH  042%=      5-min Rain = 0
KDO1 010622Z 01008KT 04/M08 A3022 RMK A01 T00421075  RH  042%=      5-min Rain = 0
KDO1 010623Z 01006KT 04/M07 A3022 RMK A01 T00421074  RH  042%=      5-min Rain = 0
KDO1 010624Z 01007KT 04/M07 A3022 RMK A01 T00421074  RH  043%=      5-min Rain = 0
KDO1 010625Z 00008KT 04/M07 A3022 RMK A01 T00421073  RH  043%=      5-min Rain = 0
KDO1 010626Z 00008KT 04/M07 A3022 RMK A01 T00421074  RH  043%=      5-min Rain = 0
KDO1 010627Z 01008KT 04/M07 A3022 RMK A01 T00421074  RH  043%=      5-min Rain = 0
KDO1 010628Z 01009KT 04/M07 A3022 RMK A01 T00421074  RH  043%=      5-min Rain = 0
KDO1 010629Z 00007KT 04/M07 A3022 RMK A01 T00421074  RH  043%=      5-min Rain = 0
KDO1 010630Z 01009KT 04/M07 A3022 RMK A01 T00421074  RH  043%=      5-min Rain = 0
KDO1 010631Z 01009KT 04/M08 A3022 RMK A01 T00421075  RH  042%=      5-min Rain = 0
KDO1 010632Z 01008KT 04/M08 A3022 RMK A01 T00421075  RH  042%=      5-min Rain = 0
KDO1 010633Z 01009KT 04/M08 A3022 RMK A01 T00421075  RH  042%=      5-min Rain = 0
KDO1 010634Z 01008KT 04/M08 A3021 RMK A01 T00421075  RH  042%=      5-min Rain = 0
KDO1 010635Z 01009KT 04/M08 A3022 RMK A01 T00411075  RH  042%=      5-min Rain = 0
KDO1 010636Z 01010KT 04/M08 A3022 RMK A01 T00421075  RH  042%=      5-min Rain = 0
KDO1 010637Z 01009KT 04/M08 A3021 RMK A01 T00411075  RH  042%=      5-min Rain = 0
KDO1 010638Z 01010KT 04/M07 A3021 RMK A01 T00411074  RH  043%=      5-min Rain = 0
KDO1 010639Z 01007KT 04/M08 A3021 RMK A01 T00411075  RH  043%=      5-min Rain = 0
KDO1 010640Z 01008KT 04/M07 A3021 RMK A01 T00411074  RH  043%=      5-min Rain = 0
KDO1 010641Z 01007KT 04/M07 A3022 RMK A01 T00411074  RH  043%=      5-min Rain = 0
KDO1 010642Z 00007KT 04/M07 A3022 RMK A01 T00411074  RH  043%=      5-min Rain = 0
KDO1 010643Z 36008KT 04/M07 A3022 RMK A01 T00401073  RH  043%=      5-min Rain = 0
KDO1 010644Z 36010KT 04/M07 A3022 RMK A01 T00401073  RH  043%=      5-min Rain = 0
KDO1 010645Z 00008KT 04/M07 A3022 RMK A01 T00401074  RH  043%=      5-min Rain = 0
KDO1 010646Z 00008KT 04/M07 A3022 RMK A01 T00401074  RH  043%=      5-min Rain = 0
KDO1 010647Z 01009KT 04/M07 A3021 RMK A01 T00401074  RH  043%=      5-min Rain = 0
KDO1 010648Z 01010KT 04/M07 A3021 RMK A01 T00401074  RH  043%=      5-min Rain = 0
KDO1 010649Z 01008KT 04/M07 A3021 RMK A01 T00401074  RH  043%=      5-min Rain = 0
KDO1 010650Z 00009KT 04/M07 A3021 RMK A01 T00401073  RH  043%=      5-min Rain = 0
KDO1 010651Z 00009KT 04/M07 A3021 RMK A01 T00401073  RH  044%=      5-min Rain = 0
KDO1 010652Z 36009KT 04/M07 A3021 RMK A01 T00391073  RH  044%=      5-min Rain = 0
KDO1 010653Z 36009KT 04/M07 A3021 RMK A01 T00391072  RH  044%=      5-min Rain = 0
KDO1 010654Z 00009KT 04/M07 A3021 RMK A01 T00391072  RH  044%=      5-min Rain = 0
KDO1 010655Z 01007KT 04/M07 A3021 RMK A01 T00391072  RH  044%=      5-min Rain = 0
KDO1 010656Z 01010KT 04/M07 A3021 RMK A01 T00381072  RH  044%=      5-min Rain = 0
KDO1 010657Z 01009KT 04/M07 A3021 RMK A01 T00381072  RH  044%=      5-min Rain = 0
KDO1 010658Z 01009KT 04/M07 A3021 RMK A01 T00381072  RH  044%=      5-min Rain = 0
KDO1 010659Z 00010KT 04/M07 A3021 RMK A01 T00381072  RH  044%=      5-min Rain = 0
KDO1 010700Z 00008KT 04/M07 A3021 RMK A01 T00381071  RH  045%=      5-min Rain = 0
KDO1 010701Z 01009KT 04/M07 A3022 RMK A01 T00381072  RH  045%=      5-min Rain = 0
KDO1 010702Z 01006KT 04/M07 A3022 RMK A01 T00381072  RH  045%=      5-min Rain = 0
KDO1 010703Z 00009KT 04/M07 A3022 RMK A01 T00381072  RH  045%=      5-min Rain = 0
KDO1 010704Z 00007KT 04/M07 A3022 RMK A01 T00381072  RH  044%=      5-min Rain = 0
KDO1 010705Z 01008KT 04/M07 A3023 RMK A01 T00381072  RH  045%=      5-min Rain = 0
KDO1 010706Z 00006KT 04/M07 A3023 RMK A01 T00381072  RH  045%=      5-min Rain = 0
KDO1 010707Z 01006KT 04/M07 A3023 RMK A01 T00381071  RH  045%=      5-min Rain = 0
KDO1 010708Z 01008KT 04/M07 A3023 RMK A01 T00381071  RH  045%=      5-min Rain = 0
KDO1 010709Z 00009KT 04/M07 A3023 RMK A01 T00381071  RH  045%=      5-min Rain = 0
KDO1 010710Z 01008KT 04/M07 A3023 RMK A01 T00381072  RH  045%=      5-min Rain = 0
KDO1 010711Z 01008KT 04/M07 A3023 RMK A01 T00381072  RH  045%=      5-min Rain = 0
KDO1 010712Z 01008KT 04/M07 A3023 RMK A01 T00381072  RH  045%=      5-min Rain = 0
KDO1 010713Z 01007KT 04/M07 A3023 RMK A01 T00381072  RH  045%=      5-min Rain = 0
KDO1 010714Z 01008KT 04/M07 A3023 RMK A01 T00381071  RH  045%=      5-min Rain = 0
KDO1 010715Z 02006KT 04/M07 A3023 RMK A01 T00381072  RH  045%=      5-min Rain = 0
KDO1 010716Z 01006KT 04/M07 A3023 RMK A01 T00381072  RH  045%=      5-min Rain = 0
KDO1 010717Z 02005KT 04/M07 A3024 RMK A01 T00381071  RH  045%=      5-min Rain = 0
KDO1 010718Z 02007KT 04/M07 A3024 RMK A01 T00381071  RH  045%=      5-min Rain = 0
KDO1 010719Z 02006KT 04/M07 A3024 RMK A01 T00371071  RH  045%=      5-min Rain = 0
KDO1 010720Z 01006KT 04/M07 A3024 RMK A01 T00381071  RH  045%=      5-min Rain = 0
KDO1 010721Z 01006KT 04/M07 A3024 RMK A01 T00371071  RH  045%=      5-min Rain = 0
KDO1 010722Z 01008KT 04/M07 A3023 RMK A01 T00381071  RH  045%=      5-min Rain = 0
KDO1 010723Z 02006KT 04/M07 A3023 RMK A01 T00381072  RH  045%=      5-min Rain = 0
KDO1 010724Z 01008KT 04/M07 A3024 RMK A01 T00381071  RH  045%=      5-min Rain = 0
KDO1 010725Z 02006KT 04/M07 A3024 RMK A01 T00371071  RH  045%=      5-min Rain = 0
KDO1 010726Z 01007KT 04/M07 A3024 RMK A01 T00371071  RH  045%=      5-min Rain = 0
KDO1 010727Z 02007KT 04/M07 A3024 RMK A01 T00371071  RH  045%=      5-min Rain = 0
KDO1 010728Z 02006KT 04/M07 A3024 RMK A01 T00371071  RH  045%=      5-min Rain = 0
KDO1 010729Z 02008KT 04/M07 A3024 RMK A01 T00371070  RH  046%=      5-min Rain = 0
KDO1 010730Z 01007KT 04/M07 A3024 RMK A01 T00361071  RH  046%=      5-min Rain = 0
KDO1 010731Z 02007KT 04/M07 A3024 RMK A01 T00361071  RH  045%=      5-min Rain = 0
KDO1 010732Z 02008KT 04/M07 A3024 RMK A01 T00361071  RH  045%=      5-min Rain = 0
KDO1 010733Z 01007KT 04/M07 A3024 RMK A01 T00361071  RH  045%=      5-min Rain = 0
KDO1 010734Z 01006KT 04/M07 A3024 RMK A01 T00361071  RH  045%=      5-min Rain = 0
KDO1 010735Z 01007KT 04/M07 A3024 RMK A01 T00361071  RH  045%=      5-min Rain = 0
KDO1 010736Z 01008KT 04/M07 A3025 RMK A01 T00361071  RH  045%=      5-min Rain = 0
KDO1 010737Z 01007KT 04/M07 A3025 RMK A01 T00361071  RH  046%=      5-min Rain = 0
KDO1 010738Z 01006KT 04/M07 A3025 RMK A01 T00361071  RH  046%=      5-min Rain = 0
KDO1 010739Z 02005KT 04/M07 A3025 RMK A01 T00361070  RH  046%=      5-min Rain = 0
KDO1 010740Z 01005KT 04/M07 A3025 RMK A01 T00351070  RH  046%=      5-min Rain = 0
KDO1 010741Z 01007KT 04/M07 A3025 RMK A01 T00351070  RH  046%=      5-min Rain = 0
KDO1 010742Z 01005KT 04/M07 A3025 RMK A01 T00351070  RH  046%=      5-min Rain = 0
KDO1 010743Z 01006KT 04/M07 A3025 RMK A01 T00351070  RH  046%=      5-min Rain = 0
KDO1 010744Z 01007KT 03/M07 A3025 RMK A01 T00341070  RH  046%=      5-min Rain = 0
KDO1 010745Z 01007KT 03/M07 A3025 RMK A01 T00341070  RH  046%=      5-min Rain = 0
KDO1 010746Z 01006KT 03/M07 A3025 RMK A01 T00341070  RH  047%=      5-min Rain = 0
KDO1 010747Z 01006KT 03/M07 A3025 RMK A01 T00331070  RH  047%=      5-min Rain = 0
KDO1 010748Z 02006KT 03/M07 A3025 RMK A01 T00331069  RH  047%=      5-min Rain = 0
KDO1 010749Z 01006KT 03/M07 A3025 RMK A01 T00331069  RH  047%=      5-min Rain = 0
KDO1 010750Z 02005KT 03/M07 A3025 RMK A01 T00331070  RH  047%=      5-min Rain = 0
KDO1 010751Z 02006KT 03/M07 A3025 RMK A01 T00331069  RH  047%=      5-min Rain = 0
KDO1 010752Z 02007KT 03/M07 A3025 RMK A01 T00331070  RH  047%=      5-min Rain = 0
KDO1 010753Z 02005KT 03/M07 A3025 RMK A01 T00331069  RH  047%=      5-min Rain = 0
KDO1 010754Z 02005KT 03/M07 A3025 RMK A01 T00331069  RH  047%=      5-min Rain = 0
KDO1 010755Z 02006KT 03/M07 A3026 RMK A01 T00321070  RH  047%=      5-min Rain = 0
KDO1 010756Z 03007KT 03/M07 A3026 RMK A01 T00321069  RH  047%=      5-min Rain = 0
KDO1 010757Z 02006KT 03/M07 A3026 RMK A01 T00321069  RH  047%=      5-min Rain = 0
KDO1 010758Z 03004KT 03/M07 A3026 RMK A01 T00321068  RH  048%=      5-min Rain = 0
KDO1 010759Z 02003KT 03/M07 A3026 RMK A01 T00321068  RH  048%=      5-min Rain = 0
KDO1 010800Z 02004KT 03/M07 A3026 RMK A01 T00311068  RH  048%=      5-min Rain = 0
KDO1 010801Z 02004KT 03/M07 A3026 RMK A01 T00311068  RH  048%=      5-min Rain = 0
KDO1 010802Z 02004KT 03/M07 A3026 RMK A01 T00311068  RH  048%=      5-min Rain = 0
KDO1 010803Z 03003KT 03/M07 A3026 RMK A01 T00311068  RH  048%=      5-min Rain = 0
KDO1 010804Z 03003KT 03/M07 A3026 RMK A01 T00311068  RH  048%=      5-min Rain = 0
KDO1 010805Z 03003KT 03/M07 A3026 RMK A01 T00311068  RH  048%=      5-min Rain = 0
KDO1 010806Z 02004KT 03/M07 A3026 RMK A01 T00311068  RH  048%=      5-min Rain = 0
KDO1 010807Z 03004KT 03/M07 A3026 RMK A01 T00311069  RH  048%=      5-min Rain = 0
KDO1 010808Z 02004KT 03/M07 A3026 RMK A01 T00311068  RH  048%=      5-min Rain = 0
KDO1 010809Z 02004KT 03/M07 A3026 RMK A01 T00301068  RH  048%=      5-min Rain = 0
KDO1 010810Z 02004KT 03/M07 A3026 RMK A01 T00301068  RH  048%=      5-min Rain = 0
KDO1 010811Z 01004KT 03/M07 A3026 RMK A01 T00301069  RH  048%=      5-min Rain = 0
KDO1 010812Z 02005KT 03/M07 A3026 RMK A01 T00301069  RH  048%=      5-min Rain = 0
KDO1 010813Z 01003KT 03/M07 A3026 RMK A01 T00301069  RH  048%=      5-min Rain = 0
KDO1 010814Z 02004KT 03/M07 A3026 RMK A01 T00301068  RH  049%=      5-min Rain = 0
KDO1 010815Z 02005KT 03/M07 A3026 RMK A01 T00291068  RH  049%=      5-min Rain = 0
KDO1 010816Z 01005KT 03/M07 A3026 RMK A01 T00291069  RH  049%=      5-min Rain = 0
KDO1 010817Z 01004KT 03/M07 A3026 RMK A01 T00291069  RH  049%=      5-min Rain = 0
KDO1 010818Z 01005KT 03/M07 A3026 RMK A01 T00281069  RH  049%=      5-min Rain = 0
KDO1 010819Z 00006KT 03/M07 A3026 RMK A01 T00281068  RH  049%=      5-min Rain = 0
KDO1 010820Z 00005KT 03/M07 A3026 RMK A01 T00271068  RH  050%=      5-min Rain = 0
KDO1 010821Z 01005KT 03/M07 A3026 RMK A01 T00261068  RH  050%=      5-min Rain = 0
KDO1 010822Z 36005KT 03/M07 A3026 RMK A01 T00251068  RH  050%=      5-min Rain = 0
KDO1 010823Z 36006KT 03/M07 A3026 RMK A01 T00251068  RH  050%=      5-min Rain = 0
KDO1 010824Z 36006KT 02/M07 A3026 RMK A01 T00241068  RH  050%=      5-min Rain = 0
KDO1 010825Z 36006KT 02/M07 A3026 RMK A01 T00241069  RH  050%=      5-min Rain = 0
KDO1 010826Z 36005KT 02/M07 A3026 RMK A01 T00231068  RH  051%=      5-min Rain = 0
KDO1 010827Z 36005KT 02/M07 A3026 RMK A01 T00231068  RH  051%=      5-min Rain = 0
KDO1 010828Z 00005KT 02/M07 A3026 RMK A01 T00231068  RH  051%=      5-min Rain = 0
KDO1 010829Z 00006KT 02/M07 A3026 RMK A01 T00231068  RH  051%=      5-min Rain = 0
KDO1 010830Z 00006KT 02/M07 A3026 RMK A01 T00221068  RH  051%=      5-min Rain = 0
KDO1 010831Z 00006KT 02/M07 A3026 RMK A01 T00221068  RH  051%=      5-min Rain = 0
KDO1 010832Z 36006KT 02/M07 A3026 RMK A01 T00221068  RH  051%=      5-min Rain = 0
KDO1 010833Z 36005KT 02/M07 A3027 RMK A01 T00221068  RH  052%=      5-min Rain = 0
KDO1 010834Z 35006KT 02/M07 A3027 RMK A01 T00221067  RH  052%=      5-min Rain = 0
KDO1 010835Z 35006KT 02/M07 A3027 RMK A01 T00211068  RH  052%=      5-min Rain = 0
KDO1 010836Z 35006KT 02/M07 A3027 RMK A01 T00211067  RH  052%=      5-min Rain = 0
KDO1 010837Z 35006KT 02/M07 A3027 RMK A01 T00211067  RH  052%=      5-min Rain = 0
KDO1 010838Z 35007KT 02/M07 A3026 RMK A01 T00201068  RH  052%=      5-min Rain = 0
KDO1 010839Z 36006KT 02/M07 A3026 RMK A01 T00201068  RH  052%=      5-min Rain = 0
KDO1 010840Z 36007KT 02/M07 A3026 RMK A01 T00201067  RH  052%=      5-min Rain = 0
KDO1 010841Z 36007KT 02/M07 A3026 RMK A01 T00201068  RH  052%=      5-min Rain = 0
KDO1 010842Z 36007KT 02/M07 A3026 RMK A01 T00191067  RH  053%=      5-min Rain = 0
KDO1 010843Z 35006KT 02/M07 A3026 RMK A01 T00181068  RH  053%=      5-min Rain = 0
KDO1 010844Z 35007KT 02/M07 A3026 RMK A01 T00181068  RH  053%=      5-min Rain = 0
KDO1 010845Z 35007KT 02/M07 A3026 RMK A01 T00171068  RH  053%=      5-min Rain = 0
KDO1 010846Z 35007KT 02/M07 A3026 RMK A01 T00171068  RH  053%=      5-min Rain = 0
KDO1 010847Z 35008KT 02/M07 A3026 RMK A01 T00161068  RH  053%=      5-min Rain = 0
KDO1 010848Z 35007KT 02/M07 A3026 RMK A01 T00161068  RH  053%=      5-min Rain = 0
KDO1 010849Z 36007KT 02/M07 A3026 RMK A01 T00161068  RH  054%=      5-min Rain = 0
KDO1 010850Z 36008KT 02/M07 A3025 RMK A01 T00151069  RH  054%=      5-min Rain = 0
KDO1 010851Z 01007KT 02/M07 A3025 RMK A01 T00151069  RH  054%=      5-min Rain = 0
KDO1 010852Z 00007KT 02/M07 A3025 RMK A01 T00151069  RH  054%=      5-min Rain = 0
KDO1 010853Z 01008KT 02/M07 A3025 RMK A01 T00151069  RH  054%=      5-min Rain = 0
KDO1 010854Z 00007KT 02/M07 A3025 RMK A01 T00151068  RH  054%=      5-min Rain = 0
KDO1 010855Z 01007KT 02/M07 A3025 RMK A01 T00151069  RH  054%=      5-min Rain = 0
KDO1 010856Z 00007KT 01/M07 A3025 RMK A01 T00141068  RH  054%=      5-min Rain = 0
KDO1 010857Z 36007KT 01/M07 A3025 RMK A01 T00131068  RH  055%=      5-min Rain = 0
KDO1 010858Z 36007KT 01/M07 A3025 RMK A01 T00121069  RH  055%=      5-min Rain = 0
KDO1 010859Z 36008KT 01/M07 A3025 RMK A01 T00111069  RH  055%=      5-min Rain = 0
KDO1 010900Z 36008KT 01/M07 A3025 RMK A01 T00111069  RH  055%=      5-min Rain = 0
KDO1 010901Z 35008KT 01/M07 A3025 RMK A01 T00111069  RH  055%=      5-min Rain = 0
KDO1 010902Z 35008KT 01/M07 A3025 RMK A01 T00111068  RH  056%=      5-min Rain = 0
KDO1 010903Z 35009KT 01/M07 A3025 RMK A01 T00101068  RH  056%=      5-min Rain = 0
KDO1 010904Z 36008KT 01/M07 A3025 RMK A01 T00101069  RH  056%=      5-min Rain = 0
KDO1 010905Z 36008KT 01/M07 A3025 RMK A01 T00101069  RH  056%=      5-min Rain = 0
KDO1 010906Z 36007KT 01/M07 A3025 RMK A01 T00101068  RH  056%=      5-min Rain = 0
KDO1 010907Z 36008KT 01/M07 A3025 RMK A01 T00101068  RH  056%=      5-min Rain = 0
KDO1 010908Z 36008KT 01/M07 A3025 RMK A01 T00101068  RH  056%=      5-min Rain = 0
KDO1 010909Z 36008KT 01/M07 A3025 RMK A01 T00091068  RH  056%=      5-min Rain = 0
KDO1 010910Z 36008KT 01/M07 A3025 RMK A01 T00091068  RH  056%=      5-min Rain = 0
KDO1 010911Z 36008KT 01/M07 A3025 RMK A01 T00091068  RH  056%=      5-min Rain = 0
KDO1 010912Z 36009KT 01/M07 A3025 RMK A01 T00091068  RH  057%=      5-min Rain = 0
KDO1 010913Z 36009KT 01/M07 A3025 RMK A01 T00091068  RH  057%=      5-min Rain = 0
KDO1 010914Z 36007KT 01/M07 A3025 RMK A01 T00081068  RH  057%=      5-min Rain = 0
KDO1 010915Z 36008KT 01/M07 A3025 RMK A01 T00081068  RH  057%=      5-min Rain = 0
KDO1 010916Z 00008KT 01/M07 A3025 RMK A01 T00081068  RH  057%=      5-min Rain = 0
KDO1 010917Z 00008KT 01/M07 A3025 RMK A01 T00081068  RH  057%=      5-min Rain = 0
KDO1 010918Z 00008KT 01/M07 A3025 RMK A01 T00081068  RH  057%=      5-min Rain = 0
KDO1 010919Z 36009KT 01/M07 A3025 RMK A01 T00081068  RH  057%=      5-min Rain = 0
KDO1 010920Z 36009KT 01/M07 A3025 RMK A01 T00091068  RH  057%=      5-min Rain = 0
KDO1 010921Z 36008KT 01/M07 A3024 RMK A01 T00091068  RH  057%=      5-min Rain = 0
KDO1 010922Z 00010KT 01/M07 A3024 RMK A01 T00091068  RH  057%=      5-min Rain = 0
KDO1 010923Z 36010KT 01/M07 A3024 RMK A01 T00091068  RH  057%=      5-min Rain = 0
KDO1 010924Z 36009KT 01/M07 A3024 RMK A01 T00091067  RH  057%=      5-min Rain = 0
KDO1 010925Z 36010KT 01/M07 A3024 RMK A01 T00081068  RH  057%=      5-min Rain = 0
KDO1 010926Z 36010KT 01/M07 A3024 RMK A01 T00081067  RH  057%=      5-min Rain = 0
KDO1 010927Z 36009KT 01/M07 A3024 RMK A01 T00081068  RH  057%=      5-min Rain = 0
KDO1 010928Z 36009KT 01/M07 A3024 RMK A01 T00081068  RH  057%=      5-min Rain = 0
KDO1 010929Z 36009KT 01/M07 A3024 RMK A01 T00081068  RH  057%=      5-min Rain = 0
KDO1 010930Z 35009KT 01/M07 A3024 RMK A01 T00081068  RH  057%=      5-min Rain = 0
KDO1 010931Z 36009KT 01/M07 A3024 RMK A01 T00071068  RH  057%=      5-min Rain = 0
KDO1 010932Z 36009KT 01/M07 A3024 RMK A01 T00071067  RH  057%=      5-min Rain = 0
KDO1 010933Z 36010KT 01/M07 A3024 RMK A01 T00081067  RH  058%=      5-min Rain = 0
KDO1 010934Z 36009KT 01/M07 A3023 RMK A01 T00071067  RH  058%=      5-min Rain = 0
KDO1 010935Z 36010KT 01/M07 A3023 RMK A01 T00071067  RH  058%=      5-min Rain = 0
KDO1 010936Z 36010KT 01/M07 A3023 RMK A01 T00071067  RH  058%=      5-min Rain = 0
KDO1 010937Z 36010KT 01/M07 A3023 RMK A01 T00061067  RH  058%=      5-min Rain = 0
KDO1 010938Z 00011KT 01/M07 A3023 RMK A01 T00061067  RH  058%=      5-min Rain = 0
KDO1 010939Z 36010KT 01/M07 A3022 RMK A01 T00061067  RH  058%=      5-min Rain = 0
KDO1 010940Z 00012KT 01/M07 A3022 RMK A01 T00061067  RH  058%=      5-min Rain = 0
KDO1 010941Z 00010KT 01/M07 A3022 RMK A01 T00061067  RH  058%=      5-min Rain = 0
KDO1 010942Z 00011KT 01/M07 A3022 RMK A01 T00061067  RH  058%=      5-min Rain = 0
KDO1 010943Z 36010KT 01/M07 A3022 RMK A01 T00051067  RH  058%=      5-min Rain = 0
KDO1 010944Z 36012KT 01/M07 A3022 RMK A01 T00051067  RH  058%=      5-min Rain = 0
KDO1 010945Z 00011KT 01/M07 A3022 RMK A01 T00051067  RH  059%=      5-min Rain = 0
KDO1 010946Z 00010KT 01/M07 A3022 RMK A01 T00061066  RH  059%=      5-min Rain = 0
KDO1 010947Z 00011KT 01/M07 A3022 RMK A01 T00051067  RH  059%=      5-min Rain = 0
KDO1 010948Z 01010KT 01/M07 A3022 RMK A01 T00051066  RH  059%=      5-min Rain = 0
KDO1 010949Z 36010KT 01/M07 A3022 RMK A01 T00051066  RH  059%=      5-min Rain = 0
KDO1 010950Z 36011KT 01/M07 A3022 RMK A01 T00051067  RH  059%=      5-min Rain = 0
KDO1 010951Z 36011KT 01/M07 A3022 RMK A01 T00051066  RH  059%=      5-min Rain = 0
KDO1 010952Z 36011KT 01/M07 A3022 RMK A01 T00051066  RH  059%=      5-min Rain = 0
KDO1 010953Z 35010KT 01/M07 A3022 RMK A01 T00051066  RH  059%=      5-min Rain = 0
KDO1 010954Z 36010KT 01/M07 A3022 RMK A01 T00051066  RH  059%=      5-min Rain = 0
KDO1 010955Z 35010KT 01/M07 A3021 RMK A01 T00051066  RH  059%=      5-min Rain = 0
KDO1 010956Z 00014KT 01/M07 A3021 RMK A01 T00051065  RH  059%=      5-min Rain = 0
KDO1 010957Z 36012KT 01/M07 A3021 RMK A01 T00061065  RH  059%=      5-min Rain = 0
KDO1 010958Z 36013KT 01/M07 A3021 RMK A01 T00071065  RH  059%=      5-min Rain = 0
KDO1 010959Z 00012KT 01/M07 A3021 RMK A01 T00071065  RH  059%=      5-min Rain = 0
KDO1 011000Z 36010KT 01/M07 A3022 RMK A01 T00071065  RH  059%=      5-min Rain = 0
KDO1 011001Z 36011KT 01/M07 A3022 RMK A01 T00071065  RH  059%=      5-min Rain = 0
KDO1 011002Z 36010KT 01/M07 A3022 RMK A01 T00071065  RH  059%=      5-min Rain = 0
KDO1 011003Z 35012KT 01/M07 A3022 RMK A01 T00071065  RH  059%=      5-min Rain = 0
KDO1 011004Z 36013KT 01/M07 A3022 RMK A01 T00081065  RH  058%=      5-min Rain = 0
KDO1 011005Z 36010KT 01/M07 A3022 RMK A01 T00081065  RH  058%=      5-min Rain = 0
KDO1 011006Z 00010KT 01/M06 A3022 RMK A01 T00091064  RH  058%=      5-min Rain = 0
KDO1 011007Z 36011G16KT 01/M06 A3022 RMK A01 T00091064  RH  058%=      5-min Rain = 0
KDO1 011008Z 36010KT 01/M06 A3022 RMK A01 T00091064  RH  058%=      5-min Rain = 0
KDO1 011009Z 01009KT 01/M06 A3023 RMK A01 T00091064  RH  058%=      5-min Rain = 0
KDO1 011010Z 00008KT 01/M06 A3023 RMK A01 T00091064  RH  058%=      5-min Rain = 0
KDO1 011011Z 01007KT 01/M06 A3023 RMK A01 T00091063  RH  058%=      5-min Rain = 0
KDO1 011012Z 00009KT 01/M06 A3023 RMK A01 T00091063  RH  058%=      5-min Rain = 0
KDO1 011013Z 01006KT 01/M06 A3024 RMK A01 T00101063  RH  058%=      5-min Rain = 0
KDO1 011014Z 00008KT 01/M06 A3024 RMK A01 T00101063  RH  058%=      5-min Rain = 0
KDO1 011015Z 00008KT 01/M06 A3024 RMK A01 T00101063  RH  058%=      5-min Rain = 0
KDO1 011016Z 00008KT 01/M06 A3025 RMK A01 T00101063  RH  058%=      5-min Rain = 0
KDO1 011017Z 01007KT 01/M06 A3025 RMK A01 T00101063  RH  058%=      5-min Rain = 0
KDO1 011018Z 00008KT 01/M06 A3025 RMK A01 T00111063  RH  058%=      5-min Rain = 0
KDO1 011019Z 00007KT 01/M06 A3026 RMK A01 T00111063  RH  058%=      5-min Rain = 0
KDO1 011020Z 00006KT 01/M06 A3026 RMK A01 T00111063  RH  058%=      5-min Rain = 0
KDO1 011021Z 01006KT 01/M06 A3026 RMK A01 T00111062  RH  058%=      5-min Rain = 0
KDO1 011022Z 00007KT 01/M06 A3026 RMK A01 T00111062  RH  058%=      5-min Rain = 0
KDO1 011023Z 00007KT 01/M06 A3026 RMK A01 T00111062  RH  058%=      5-min Rain = 0
KDO1 011024Z 00007KT 01/M06 A3026 RMK A01 T00111062  RH  058%=      5-min Rain = 0
KDO1 011025Z 36007KT 01/M06 A3026 RMK A01 T00111062  RH  058%=      5-min Rain = 0
KDO1 011026Z 00008KT 01/M06 A3026 RMK A01 T00111062  RH  058%=      5-min Rain = 0
KDO1 011027Z 36008KT 01/M06 A3026 RMK A01 T00111062  RH  058%=      5-min Rain = 0
KDO1 011028Z 36008KT 01/M06 A3026 RMK A01 T00111062  RH  058%=      5-min Rain = 0
KDO1 011029Z 36008KT 01/M06 A3026 RMK A01 T00111062  RH  058%=      5-min Rain = 0
KDO1 011030Z 36007KT 01/M06 A3026 RMK A01 T00111062  RH  058%=      5-min Rain = 0
KDO1 011031Z 36009KT 01/M06 A3026 RMK A01 T00111062  RH  058%=      5-min Rain = 0
KDO1 011032Z 00007KT 01/M06 A3026 RMK A01 T00111062  RH  058%=      5-min Rain = 0
KDO1 011033Z 00008KT 01/M06 A3026 RMK A01 T00121061  RH  058%=      5-min Rain = 0
KDO1 011034Z 36007KT 01/M06 A3026 RMK A01 T00121061  RH  058%=      5-min Rain = 0
KDO1 011035Z 36008KT 01/M06 A3026 RMK A01 T00121062  RH  058%=      5-min Rain = 0
KDO1 011036Z 36009KT 01/M06 A3026 RMK A01 T00121062  RH  058%=      5-min Rain = 0
KDO1 011037Z 36007KT 01/M06 A3026 RMK A01 T00121062  RH  058%=      5-min Rain = 0
KDO1 011038Z 36009KT 01/M06 A3026 RMK A01 T00121062  RH  058%=      5-min Rain = 0
KDO1 011039Z 00008KT 01/M06 A3026 RMK A01 T00121062  RH  058%=      5-min Rain = 0
KDO1 011040Z 00008KT 01/M06 A3026 RMK A01 T00121062  RH  058%=      5-min Rain = 0
KDO1 011041Z 00008KT 01/M06 A3026 RMK A01 T00121062  RH  058%=      5-min Rain = 0
KDO1 011042Z 00007KT 01/M06 A3026 RMK A01 T00131061  RH  058%=      5-min Rain = 0
KDO1 011043Z 00008KT 01/M06 A3026 RMK A01 T00131061  RH  058%=      5-min Rain = 0
KDO1 011044Z 00009KT 01/M06 A3026 RMK A01 T00131061  RH  058%=      5-min Rain = 0
KDO1 011045Z 00007KT 01/M06 A3026 RMK A01 T00131062  RH  058%=      5-min Rain = 0
KDO1 011046Z 01006KT 01/M06 A3026 RMK A01 T00131061  RH  058%=      5-min Rain = 0
KDO1 011047Z 00007KT 01/M06 A3026 RMK A01 T00131061  RH  058%=      5-min Rain = 0
KDO1 011048Z 00008KT 01/M06 A3026 RMK A01 T00131061  RH  058%=      5-min Rain = 0
KDO1 011049Z 01008KT 01/M06 A3026 RMK A01 T00131061  RH  058%=      5-min Rain = 0
KDO1 011050Z 00007KT 01/M06 A3026 RMK A01 T00131061  RH  058%=      5-min Rain = 0
KDO1 011051Z 01006KT 01/M06 A3026 RMK A01 T00131060  RH  058%=      5-min Rain = 0
KDO1 011052Z 00008KT 01/M06 A3026 RMK A01 T00131060  RH  058%=      5-min Rain = 0
KDO1 011053Z 00007KT 01/M06 A3026 RMK A01 T00131060  RH  058%=      5-min Rain = 0
KDO1 011054Z 01006KT 01/M06 A3026 RMK A01 T00131060  RH  058%=      5-min Rain = 0
KDO1 011055Z 00008KT 01/M06 A3026 RMK A01 T00141060  RH  058%=      5-min Rain = 0
KDO1 011056Z 36007KT 01/M06 A3027 RMK A01 T00141060  RH  058%=      5-min Rain = 0
KDO1 011057Z 00007KT 01/M06 A3027 RMK A01 T00141060  RH  058%=      5-min Rain = 0
KDO1 011058Z 00007KT 01/M06 A3027 RMK A01 T00141060  RH  058%=      5-min Rain = 0
KDO1 011059Z 00006KT 01/M06 A3027 RMK A01 T00141059  RH  058%=      5-min Rain = 0
KDO1 011100Z 00007KT 01/M06 A3027 RMK A01 T00141059  RH  058%=      5-min Rain = 0
KDO1 011101Z 00007KT 01/M06 A3027 RMK A01 T00141059  RH  058%=      5-min Rain = 0
KDO1 011102Z 00008KT 01/M06 A3027 RMK A01 T00141059  RH  058%=      5-min Rain = 0
KDO1 011103Z 35007KT 01/M06 A3027 RMK A01 T00141060  RH  058%=      5-min Rain = 0
KDO1 011104Z 36007KT 01/M06 A3027 RMK A01 T00141060  RH  058%=      5-min Rain = 0
KDO1 011105Z 36008KT 01/M06 A3027 RMK A01 T00141059  RH  058%=      5-min Rain = 0
KDO1 011106Z 00007KT 01/M06 A3027 RMK A01 T00141060  RH  058%=      5-min Rain = 0
KDO1 011107Z 00009KT 01/M06 A3028 RMK A01 T00141060  RH  058%=      5-min Rain = 0
KDO1 011108Z 00008KT 01/M06 A3028 RMK A01 T00141060  RH  058%=      5-min Rain = 0
KDO1 011109Z 36008KT 01/M06 A3028 RMK A01 T00141060  RH  058%=      5-min Rain = 0
KDO1 011110Z 00007KT 01/M06 A3028 RMK A01 T00141060  RH  058%=      5-min Rain = 0
KDO1 011111Z 00006KT 01/M06 A3028 RMK A01 T00141059  RH  058%=      5-min Rain = 0
KDO1 011112Z 00008KT 01/M06 A3028 RMK A01 T00141060  RH  058%=      5-min Rain = 0
KDO1 011113Z 00007KT 01/M06 A3028 RMK A01 T00141060  RH  058%=      5-min Rain = 0
KDO1 011114Z 01007KT 01/M06 A3028 RMK A01 T00141060  RH  058%=      5-min Rain = 0
KDO1 011115Z 01007KT 01/M06 A3028 RMK A01 T00141060  RH  058%=      5-min Rain = 0
KDO1 011116Z 01006KT 01/M06 A3028 RMK A01 T00141060  RH  058%=      5-min Rain = 0
KDO1 011117Z 00008KT 01/M06 A3028 RMK A01 T00141060  RH  058%=      5-min Rain = 0
KDO1 011118Z 01005KT 01/M06 A3028 RMK A01 T00141060  RH  058%=      5-min Rain = 0
KDO1 011119Z 00008KT 01/M06 A3028 RMK A01 T00141060  RH  058%=      5-min Rain = 0
KDO1 011120Z 00008KT 01/M06 A3028 RMK A01 T00141060  RH  058%=      5-min Rain = 0
KDO1 011121Z 00008KT 01/M06 A3028 RMK A01 T00141060  RH  058%=      5-min Rain = 0
KDO1 011122Z 01008KT 01/M06 A3028 RMK A01 T00141060  RH  058%=      5-min Rain = 0
KDO1 011123Z 00007KT 01/M06 A3028 RMK A01 T00141060  RH  058%=      5-min Rain = 0
KDO1 011124Z 00007KT 01/M06 A3028 RMK A01 T00141059  RH  058%=      5-min Rain = 0
KDO1 011125Z 01008KT 01/M06 A3028 RMK A01 T00141059  RH  058%=      5-min Rain = 0
KDO1 011126Z 36007KT 01/M06 A3028 RMK A01 T00131059  RH  059%=      5-min Rain = 0
KDO1 011127Z 00008KT 01/M06 A3028 RMK A01 T00131059  RH  059%=      5-min Rain = 0
KDO1 011128Z 00008KT 01/M06 A3028 RMK A01 T00131059  RH  059%=      5-min Rain = 0
KDO1 011129Z 00009KT 01/M06 A3028 RMK A01 T00131059  RH  058%=      5-min Rain = 0
KDO1 011130Z 36009KT 01/M06 A3028 RMK A01 T00131059  RH  058%=      5-min Rain = 0
KDO1 011131Z 36008KT 01/M06 A3027 RMK A01 T00131059  RH  058%=      5-min Rain = 0
KDO1 011132Z 36007KT 01/M06 A3027 RMK A01 T00131059  RH  059%=      5-min Rain = 0
KDO1 011133Z 00008KT 01/M06 A3027 RMK A01 T00131059  RH  059%=      5-min Rain = 0
KDO1 011134Z 00009KT 01/M06 A3027 RMK A01 T00131059  RH  059%=      5-min Rain = 0
KDO1 011135Z 36010KT 01/M06 A3027 RMK A01 T00131059  RH  059%=      5-min Rain = 0
KDO1 011136Z 36009KT 01/M06 A3027 RMK A01 T00131059  RH  059%=      5-min Rain = 0
KDO1 011137Z 36009KT 01/M06 A3027 RMK A01 T00131059  RH  059%=      5-min Rain = 0
KDO1 011138Z 35010KT 01/M06 A3027 RMK A01 T00131059  RH  059%=      5-min Rain = 0
KDO1 011139Z 00009KT 01/M06 A3027 RMK A01 T00131059  RH  059%=      5-min Rain = 0
KDO1 011140Z 00008KT 01/M06 A3027 RMK A01 T00131059  RH  059%=      5-min Rain = 0
KDO1 011141Z 36011KT 01/M06 A3027 RMK A01 T00131059  RH  059%=      5-min Rain = 0
KDO1 011142Z 36011KT 01/M06 A3027 RMK A01 T00131059  RH  059%=      5-min Rain = 0
KDO1 011143Z 00011KT 01/M06 A3027 RMK A01 T00131059  RH  059%=      5-min Rain = 0
KDO1 011144Z 00009G14KT 01/M06 A3027 RMK A01 T00131059  RH  059%=      5-min Rain = 0
KDO1 011145Z 00009KT 01/M06 A3027 RMK A01 T00131059  RH  059%=      5-min Rain = 0
KDO1 011146Z 01009KT 01/M06 A3027 RMK A01 T00131058  RH  059%=      5-min Rain = 0
KDO1 011147Z 00012G17KT 01/M06 A3026 RMK A01 T00131058  RH  059%=      5-min Rain = 0
KDO1 011148Z 00010KT 01/M06 A3026 RMK A01 T00131059  RH  059%=      5-min Rain = 0
KDO1 011149Z 00010KT 01/M06 A3027 RMK A01 T00131058  RH  059%=      5-min Rain = 0
KDO1 011150Z 35011KT 01/M06 A3027 RMK A01 T00121058  RH  059%=      5-min Rain = 0
KDO1 011151Z 35011KT 01/M06 A3027 RMK A01 T00121058  RH  059%=      5-min Rain = 0
KDO1 011152Z 36010KT 01/M06 A3027 RMK A01 T00131058  RH  059%=      5-min Rain = 0
KDO1 011153Z 36011KT 01/M06 A3027 RMK A01 T00121058  RH  059%=      5-min Rain = 0
KDO1 011154Z 35009KT 01/M06 A3028 RMK A01 T00121058  RH  059%=      5-min Rain = 0
KDO1 011155Z 35009KT 01/M06 A3028 RMK A01 T00121058  RH  059%=      5-min Rain = 0
KDO1 011156Z 35011KT 01/M06 A3028 RMK A01 T00121058  RH  059%=      5-min Rain = 0
KDO1 011157Z 36009KT 01/M06 A3029 RMK A01 T00121058  RH  059%=      5-min Rain = 0
KDO1 011158Z 35008KT 01/M06 A3029 RMK A01 T00131058  RH  059%=      5-min Rain = 0
KDO1 011159Z 35009KT 01/M06 A3029 RMK A01 T00131058  RH  059%=      5-min Rain = 0
KDO1 011200Z 35008KT 01/M06 A3029 RMK A01 T00131058  RH  059%=      5-min Rain = 0
KDO1 011201Z 36007KT 01/M06 A3029 RMK A01 T00131058  RH  059%=      5-min Rain = 0
KDO1 011202Z 00006KT 01/M06 A3029 RMK A01 T00131058  RH  059%=      5-min Rain = 0
KDO1 011203Z 01006KT 01/M06 A3029 RMK A01 T00131058  RH  059%=      5-min Rain = 0
KDO1 011204Z 00007KT 01/M06 A303 RMK A01 T00131058  RH  059%=      5-min Rain = 0
KDO1 011205Z 01007KT 01/M06 A303 RMK A01 T00131058  RH  059%=      5-min Rain = 0
KDO1 011206Z 00006KT 01/M06 A303 RMK A01 T00131058  RH  059%=      5-min Rain = 0
KDO1 011207Z 01006KT 01/M06 A303 RMK A01 T00131058  RH  059%=      5-min Rain = 0
KDO1 011208Z 02005KT 01/M06 A303 RMK A01 T00131059  RH  059%=      5-min Rain = 0
KDO1 011209Z 01006KT 01/M06 A303 RMK A01 T00131058  RH  059%=      5-min Rain = 0
KDO1 011210Z 01005KT 01/M06 A303 RMK A01 T00131059  RH  059%=      5-min Rain = 0
KDO1 011211Z 01005KT 01/M06 A303 RMK A01 T00131059  RH  059%=      5-min Rain = 0
KDO1 011212Z 01006KT 01/M06 A3031 RMK A01 T00131058  RH  059%=      5-min Rain = 0
KDO1 011213Z 01007KT 01/M06 A3031 RMK A01 T00131058  RH  059%=      5-min Rain = 0
KDO1 011214Z 00006KT 01/M06 A3031 RMK A01 T00131058  RH  059%=      5-min Rain = 0
KDO1 011215Z 36006KT 01/M06 A3031 RMK A01 T00131058  RH  059%=      5-min Rain = 0
KDO1 011216Z 36006KT 01/M06 A3031 RMK A01 T00131057  RH  060%=      5-min Rain = 0
KDO1 011217Z 36007KT 01/M06 A3031 RMK A01 T00131057  RH  060%=      5-min Rain = 0
KDO1 011218Z 36009KT 01/M06 A3031 RMK A01 T00131057  RH  060%=      5-min Rain = 0
KDO1 011219Z 36008KT 01/M06 A3031 RMK A01 T00131057  RH  060%=      5-min Rain = 0
KDO1 011220Z 35007KT 01/M06 A3031 RMK A01 T00131057  RH  060%=      5-min Rain = 0
KDO1 011221Z 00006KT 01/M06 A3031 RMK A01 T00131057  RH  060%=      5-min Rain = 0
KDO1 011222Z 01006KT 01/M06 A3031 RMK A01 T00131057  RH  060%=      5-min Rain = 0
KDO1 011223Z 00008KT 01/M06 A3031 RMK A01 T00121057  RH  060%=      5-min Rain = 0
KDO1 011224Z 01007KT 01/M06 A3031 RMK A01 T00121057  RH  060%=      5-min Rain = 0
KDO1 011225Z 01008KT 01/M06 A3031 RMK A01 T00121057  RH  060%=      5-min Rain = 0
KDO1 011226Z 00007KT 01/M06 A3031 RMK A01 T00121057  RH  060%=      5-min Rain = 0
KDO1 011227Z 01006KT 01/M06 A3031 RMK A01 T00131056  RH  060%=      5-min Rain = 0
KDO1 011228Z 00007KT 01/M06 A3031 RMK A01 T00121056  RH  060%=      5-min Rain = 0
KDO1 011229Z 01007KT 01/M06 A3031 RMK A01 T00121057  RH  060%=      5-min Rain = 0
KDO1 011230Z 01007KT 01/M06 A3031 RMK A01 T00121056  RH  060%=      5-min Rain = 0
KDO1 011231Z 00007KT 01/M06 A3031 RMK A01 T00121056  RH  061%=      5-min Rain = 0
KDO1 011232Z 36008KT 01/M06 A303 RMK A01 T00111057  RH  061%=      5-min Rain = 0
KDO1 011233Z 36009KT 01/M06 A303 RMK A01 T00111057  RH  060%=      5-min Rain = 0
KDO1 011234Z 00008KT 01/M06 A303 RMK A01 T00111056  RH  061%=      5-min Rain = 0
KDO1 011235Z 00008KT 01/M06 A303 RMK A01 T00111056  RH  061%=      5-min Rain = 0
KDO1 011236Z 35008KT 01/M06 A303 RMK A01 T00111057  RH  061%=      5-min Rain = 0
KDO1 011237Z 00009KT 01/M06 A303 RMK A01 T00111057  RH  061%=      5-min Rain = 0
KDO1 011238Z 01009KT 01/M06 A303 RMK A01 T00111057  RH  061%=      5-min Rain = 0
KDO1 011239Z 00009KT 01/M06 A303 RMK A01 T00111057  RH  061%=      5-min Rain = 0
KDO1 011240Z 01009KT 01/M06 A303 RMK A01 T00101057  RH  061%=      5-min Rain = 0
KDO1 011241Z 01008KT 01/M06 A303 RMK A01 T00101057  RH  061%=      5-min Rain = 0
KDO1 011242Z 00009KT 01/M06 A303 RMK A01 T00101057  RH  061%=      5-min Rain = 0
KDO1 011243Z 36010KT 01/M06 A303 RMK A01 T00101057  RH  061%=      5-min Rain = 0
KDO1 011244Z 36009KT 01/M06 A303 RMK A01 T00091057  RH  061%=      5-min Rain = 0
KDO1 011245Z 36009KT 01/M06 A303 RMK A01 T00091057  RH  061%=      5-min Rain = 0
KDO1 011246Z 36009KT 01/M06 A303 RMK A01 T00081057  RH  062%=      5-min Rain = 0
KDO1 011247Z 36008KT 01/M06 A303 RMK A01 T00081057  RH  062%=      5-min Rain = 0
KDO1 011248Z 00008KT 01/M06 A303 RMK A01 T00081057  RH  062%=      5-min Rain = 0
KDO1 011249Z 00008KT 01/M06 A303 RMK A01 T00081057  RH  062%=      5-min Rain = 0
KDO1 011250Z 01009KT 01/M06 A303 RMK A01 T00081057  RH  062%=      5-min Rain = 0
KDO1 011251Z 36009KT 01/M06 A303 RMK A01 T00081057  RH  062%=      5-min Rain = 0
KDO1 011252Z 01008KT 01/M06 A303 RMK A01 T00081057  RH  062%=      5-min Rain = 0
KDO1 011253Z 00009KT 01/M06 A303 RMK A01 T00071058  RH  062%=      5-min Rain = 0
KDO1 011254Z 01008KT 01/M06 A303 RMK A01 T00071058  RH  062%=      5-min Rain = 0
KDO1 011255Z 01008KT 01/M06 A303 RMK A01 T00081058  RH  062%=      5-min Rain = 0
KDO1 011256Z 00008KT 01/M06 A303 RMK A01 T00081058  RH  061%=      5-min Rain = 0
KDO1 011257Z 00008KT 01/M06 A303 RMK A01 T00081058  RH  061%=      5-min Rain = 0
KDO1 011258Z 00008KT 01/M06 A303 RMK A01 T00081058  RH  061%=      5-min Rain = 0
KDO1 011259Z 36007KT 01/M06 A303 RMK A01 T00081058  RH  061%=      5-min Rain = 0
KDO1 011300Z 00008KT 01/M06 A3031 RMK A01 T00081058  RH  062%=      5-min Rain = 0
KDO1 011301Z 00007KT 01/M06 A3031 RMK A01 T00071058  RH  062%=      5-min Rain = 0
KDO1 011302Z 00008KT 01/M06 A3031 RMK A01 T00071058  RH  062%=      5-min Rain = 0
KDO1 011303Z 36007KT 01/M06 A3031 RMK A01 T00071058  RH  062%=      5-min Rain = 0
KDO1 011304Z 36008KT 01/M06 A3031 RMK A01 T00071058  RH  062%=      5-min Rain = 0
KDO1 011305Z 00008KT 01/M06 A3031 RMK A01 T00071058  RH  062%=      5-min Rain = 0
KDO1 011306Z 35009KT 01/M06 A3031 RMK A01 T00071058  RH  062%=      5-min Rain = 0
KDO1 011307Z 35010KT 01/M06 A3031 RMK A01 T00081058  RH  061%=      5-min Rain = 0
KDO1 011308Z 36009KT 01/M06 A3031 RMK A01 T00081058  RH  061%=      5-min Rain = 0
KDO1 011309Z 01008KT 01/M06 A3031 RMK A01 T00091058  RH  061%=      5-min Rain = 0
KDO1 011310Z 00008KT 01/M06 A3031 RMK A01 T00091058  RH  061%=      5-min Rain = 0
KDO1 011311Z 01007KT 01/M06 A3031 RMK A01 T00091057  RH  061%=      5-min Rain = 0
KDO1 011312Z 00009KT 01/M06 A3031 RMK A01 T00081057  RH  061%=      5-min Rain = 0
KDO1 011313Z 36009KT 01/M06 A3031 RMK A01 T00081058  RH  061%=      5-min Rain = 0
KDO1 011314Z 35008KT 01/M06 A3031 RMK A01 T00081058  RH  062%=      5-min Rain = 0
KDO1 011315Z 36008KT 01/M06 A3031 RMK A01 T00071058  RH  062%=      5-min Rain = 0
KDO1 011316Z 35008KT 01/M06 A3031 RMK A01 T00071057  RH  062%=      5-min Rain = 0
KDO1 011317Z 36005KT 01/M06 A3031 RMK A01 T00071057  RH  062%=      5-min Rain = 0
KDO1 011318Z 00006KT 01/M06 A3032 RMK A01 T00071057  RH  062%=      5-min Rain = 0
KDO1 011319Z 36005KT 01/M06 A3032 RMK A01 T00071057  RH  062%=      5-min Rain = 0
KDO1 011320Z 35006KT 01/M06 A3032 RMK A01 T00071057  RH  062%=      5-min Rain = 0
KDO1 011321Z 35006KT 01/M06 A3032 RMK A01 T00071057  RH  062%=      5-min Rain = 0
KDO1 011322Z 00007KT 01/M06 A3032 RMK A01 T00071057  RH  062%=      5-min Rain = 0
KDO1 011323Z 00005KT 01/M06 A3032 RMK A01 T00071057  RH  062%=      5-min Rain = 0
KDO1 011324Z 00006KT 01/M06 A3032 RMK A01 T00071057  RH  062%=      5-min Rain = 0
KDO1 011325Z 36007KT 01/M06 A3032 RMK A01 T00071057  RH  062%=      5-min Rain = 0
KDO1 011326Z 36008KT 01/M06 A3032 RMK A01 T00071057  RH  062%=      5-min Rain = 0
KDO1 011327Z 36009KT 01/M06 A3032 RMK A01 T00081057  RH  062%=      5-min Rain = 0
KDO1 011328Z 36008KT 01/M06 A3032 RMK A01 T00091056  RH  062%=      5-min Rain = 0
KDO1 011329Z 00011KT 01/M06 A3032 RMK A01 T00101057  RH  061%=      5-min Rain = 0
KDO1 011330Z 36008KT 01/M06 A3032 RMK A01 T00101057  RH  061%=      5-min Rain = 0
KDO1 011331Z 00008KT 01/M06 A3032 RMK A01 T00111056  RH  061%=      5-min Rain = 0
KDO1 011332Z 00007KT 01/M06 A3032 RMK A01 T00111057  RH  061%=      5-min Rain = 0
KDO1 011333Z 01007KT 01/M06 A3033 RMK A01 T00111056  RH  061%=      5-min Rain = 0
KDO1 011334Z 01007KT 01/M06 A3033 RMK A01 T00121056  RH  061%=      5-min Rain = 0
KDO1 011335Z 01006KT 01/M06 A3033 RMK A01 T00121055  RH  061%=      5-min Rain = 0
KDO1 011336Z 02005KT 01/M06 A3033 RMK A01 T00121055  RH  061%=      5-min Rain = 0
KDO1 011337Z 02007KT 01/M06 A3033 RMK A01 T00131055  RH  060%=      5-min Rain = 0
KDO1 011338Z 02007KT 01/M06 A3033 RMK A01 T00131055  RH  060%=      5-min Rain = 0
KDO1 011339Z 01007KT 01/M06 A3033 RMK A01 T00141055  RH  060%=      5-min Rain = 0
KDO1 011340Z 02005KT 01/M06 A3033 RMK A01 T00141055  RH  060%=      5-min Rain = 0
KDO1 011341Z 01006KT 01/M06 A3033 RMK A01 T00141055  RH  060%=      5-min Rain = 0
KDO1 011342Z 02006KT 01/M05 A3033 RMK A01 T00141054  RH  060%=      5-min Rain = 0
KDO1 011343Z 02007KT 01/M05 A3033 RMK A01 T00141054  RH  060%=      5-min Rain = 0
KDO1 011344Z 02007KT 01/M05 A3033 RMK A01 T00141054  RH  060%=      5-min Rain = 0
KDO1 011345Z 02007KT 01/M05 A3034 RMK A01 T00141054  RH  060%=      5-min Rain = 0
KDO1 011346Z 01008KT 01/M06 A3034 RMK A01 T00141055  RH  060%=      5-min Rain = 0
KDO1 011347Z 00008KT 01/M06 A3034 RMK A01 T00141055  RH  060%=      5-min Rain = 0
KDO1 011348Z 01007KT 02/M05 A3034 RMK A01 T00151054  RH  060%=      5-min Rain = 0
KDO1 011349Z 01005KT 02/M05 A3034 RMK A01 T00151054  RH  060%=      5-min Rain = 0
KDO1 011350Z 02005KT 02/M05 A3034 RMK A01 T00151054  RH  060%=      5-min Rain = 0
KDO1 011351Z 02006KT 02/M05 A3034 RMK A01 T00151054  RH  060%=      5-min Rain = 0
KDO1 011352Z 01005KT 02/M05 A3034 RMK A01 T00151054  RH  060%=      5-min Rain = 0
KDO1 011353Z 01005KT 02/M05 A3034 RMK A01 T00151054  RH  060%=      5-min Rain = 0
KDO1 011354Z 36007KT 02/M05 A3034 RMK A01 T00151054  RH  060%=      5-min Rain = 0
KDO1 011355Z 35006KT 02/M05 A3034 RMK A01 T00161053  RH  060%=      5-min Rain = 0
KDO1 011356Z 35006KT 02/M05 A3035 RMK A01 T00161053  RH  060%=      5-min Rain = 0
KDO1 011357Z 36006KT 02/M05 A3035 RMK A01 T00151053  RH  060%=      5-min Rain = 0
KDO1 011358Z 36005KT 02/M05 A3035 RMK A01 T00151053  RH  060%=      5-min Rain = 0
KDO1 011359Z 01006KT 02/M05 A3035 RMK A01 T00161053  RH  060%=      5-min Rain = 0
KDO1 011400Z 01005KT 02/M05 A3035 RMK A01 T00161054  RH  060%=      5-min Rain = 0
KDO1 011401Z 00006KT 02/M05 A3035 RMK A01 T00161054  RH  060%=      5-min Rain = 0
KDO1 011402Z 36006KT 02/M05 A3035 RMK A01 T00161054  RH  060%=      5-min Rain = 0
KDO1 011403Z 01005KT 02/M05 A3036 RMK A01 T00161054  RH  060%=      5-min Rain = 0
KDO1 011404Z 01006KT 02/M05 A3036 RMK A01 T00171054  RH  060%=      5-min Rain = 0
KDO1 011405Z 00006KT 02/M05 A3036 RMK A01 T00171054  RH  059%=      5-min Rain = 0
KDO1 011406Z 01006KT 02/M05 A3036 RMK A01 T00171054  RH  059%=      5-min Rain = 0
KDO1 011407Z 36005KT 02/M05 A3036 RMK A01 T00171054  RH  059%=      5-min Rain = 0
KDO1 011408Z 36007KT 02/M05 A3036 RMK A01 T00171053  RH  060%=      5-min Rain = 0
KDO1 011409Z 00005KT 02/M05 A3036 RMK A01 T00171053  RH  060%=      5-min Rain = 0
KDO1 011410Z 01007KT 02/M05 A3036 RMK A01 T00171052  RH  060%=      5-min Rain = 0
KDO1 011411Z 01007KT 02/M05 A3036 RMK A01 T00171053  RH  060%=      5-min Rain = 0
KDO1 011412Z 01007KT 02/M05 A3036 RMK A01 T00171053  RH  060%=      5-min Rain = 0
KDO1 011413Z 00006KT 02/M05 A3035 RMK A01 T00171053  RH  060%=      5-min Rain = 0
KDO1 011414Z 36007KT 02/M05 A3035 RMK A01 T00171053  RH  060%=      5-min Rain = 0
KDO1 011415Z 00007KT 02/M05 A3035 RMK A01 T00171052  RH  060%=      5-min Rain = 0
KDO1 011416Z 01006KT 02/M05 A3035 RMK A01 T00171052  RH  060%=      5-min Rain = 0
KDO1 011417Z 01006KT 02/M05 A3035 RMK A01 T00171052  RH  060%=      5-min Rain = 0
KDO1 011418Z 00005KT 02/M05 A3035 RMK A01 T00171052  RH  060%=      5-min Rain = 0
KDO1 011419Z 00006KT 02/M05 A3035 RMK A01 T00171052  RH  060%=      5-min Rain = 0
KDO1 011420Z 01007KT 02/M05 A3035 RMK A01 T00171051  RH  061%=      5-min Rain = 0
KDO1 011421Z 00006KT 02/M05 A3035 RMK A01 T00171051  RH  061%=      5-min Rain = 0
KDO1 011422Z 00008KT 02/M05 A3035 RMK A01 T00171051  RH  061%=      5-min Rain = 0
KDO1 011423Z 36008KT 02/M05 A3035 RMK A01 T00171051  RH  060%=      5-min Rain = 0
KDO1 011424Z 36008KT 02/M05 A3035 RMK A01 T00181051  RH  060%=      5-min Rain = 0
KDO1 011425Z 36007KT 02/M05 A3035 RMK A01 T00181051  RH  060%=      5-min Rain = 0
KDO1 011426Z 36008KT 02/M05 A3035 RMK A01 T00181051  RH  060%=      5-min Rain = 0
KDO1 011427Z 36009KT 02/M05 A3035 RMK A01 T00191050  RH  060%=      5-min Rain = 0
KDO1 011428Z 35008KT 02/M05 A3035 RMK A01 T00201050  RH  060%=      5-min Rain = 0
KDO1 011429Z 35010KT 02/M05 A3035 RMK A01 T00211050  RH  060%=      5-min Rain = 0
KDO1 011430Z 35011KT 02/M05 A3035 RMK A01 T00211050  RH  059%=      5-min Rain = 0
KDO1 011431Z 35010KT 02/M05 A3035 RMK A01 T00211050  RH  059%=      5-min Rain = 0
KDO1 011432Z 35009KT 02/M05 A3036 RMK A01 T00221051  RH  059%=      5-min Rain = 0
KDO1 011433Z 36008KT 02/M05 A3036 RMK A01 T00211051  RH  059%=      5-min Rain = 0
KDO1 011434Z 36008KT 02/M05 A3036 RMK A01 T00211050  RH  059%=      5-min Rain = 0
KDO1 011435Z 36007KT 02/M05 A3036 RMK A01 T00211050  RH  059%=      5-min Rain = 0
KDO1 011436Z 00010KT 02/M05 A3036 RMK A01 T00221051  RH  059%=      5-min Rain = 0
KDO1 011437Z 36010KT 02/M05 A3036 RMK A01 T00221052  RH  058%=      5-min Rain = 0
KDO1 011438Z 00007KT 02/M05 A3036 RMK A01 T00221052  RH  058%=      5-min Rain = 0
KDO1 011439Z 00006KT 02/M05 A3036 RMK A01 T00221052  RH  058%=      5-min Rain = 0
KDO1 011440Z 02006KT 02/M05 A3036 RMK A01 T00221052  RH  058%=      5-min Rain = 0
KDO1 011441Z 02006KT 02/M05 A3037 RMK A01 T00221052  RH  058%=      5-min Rain = 0
KDO1 011442Z 01007KT 02/M05 A3037 RMK A01 T00221052  RH  058%=      5-min Rain = 0
KDO1 011443Z 01007KT 02/M05 A3037 RMK A01 T00221053  RH  058%=      5-min Rain = 0
KDO1 011444Z 01007KT 02/M05 A3037 RMK A01 T00221053  RH  057%=      5-min Rain = 0
KDO1 011445Z 01006KT 02/M05 A3037 RMK A01 T00221053  RH  058%=      5-min Rain = 0
KDO1 011446Z 01006KT 02/M05 A3037 RMK A01 T00231053  RH  057%=      5-min Rain = 0
KDO1 011447Z 02007KT 02/M05 A3037 RMK A01 T00231053  RH  057%=      5-min Rain = 0
KDO1 011448Z 02008KT 02/M05 A3037 RMK A01 T00231052  RH  057%=      5-min Rain = 0
KDO1 011449Z 01008KT 02/M05 A3037 RMK A01 T00231053  RH  057%=      5-min Rain = 0
KDO1 011450Z 01009KT 02/M05 A3037 RMK A01 T00241053  RH  057%=      5-min Rain = 0
KDO1 011451Z 00009KT 02/M05 A3037 RMK A01 T00241053  RH  057%=      5-min Rain = 0
KDO1 011452Z 00009KT 03/M05 A3037 RMK A01 T00251053  RH  057%=      5-min Rain = 0
KDO1 011453Z 01011KT 03/M05 A3037 RMK A01 T00251053  RH  056%=      5-min Rain = 0
KDO1 011454Z 01009KT 03/M05 A3037 RMK A01 T00261054  RH  056%=      5-min Rain = 0
KDO1 011455Z 01010KT 03/M05 A3037 RMK A01 T00271053  RH  056%=      5-min Rain = 0
KDO1 011456Z 00009KT 03/M05 A3037 RMK A01 T00271054  RH  055%=      5-min Rain = 0
KDO1 011457Z 00009KT 03/M05 A3037 RMK A01 T00281052  RH  055%=      5-min Rain = 0
KDO1 011458Z 01009KT 03/M05 A3037 RMK A01 T00291052  RH  055%=      5-min Rain = 0
KDO1 011459Z 01009KT 03/M05 A3037 RMK A01 T00291053  RH  054%=      5-min Rain = 0
KDO1 011500Z 01010KT 03/M05 A3037 RMK A01 T00301054  RH  054%=      5-min Rain = 0
KDO1 011501Z 01009KT 03/M05 A3037 RMK A01 T00311054  RH  054%=      5-min Rain = 0
KDO1 011502Z 01008KT 03/M05 A3037 RMK A01 T00331053  RH  053%=      5-min Rain = 0
KDO1 011503Z 01009KT 03/M05 A3037 RMK A01 T00341051  RH  053%=      5-min Rain = 0
KDO1 011504Z 00011KT 04/M05 A3037 RMK A01 T00351052  RH  053%=      5-min Rain = 0
KDO1 011505Z 01010KT 04/M05 A3037 RMK A01 T00361052  RH  053%=      5-min Rain = 0
KDO1 011506Z 01009KT 04/M05 A3037 RMK A01 T00371052  RH  052%=      5-min Rain = 0
KDO1 011507Z 01011KT 04/M05 A3038 RMK A01 T00381053  RH  052%=      5-min Rain = 0
KDO1 011508Z 01009KT 04/M05 A3038 RMK A01 T00381054  RH  051%=      5-min Rain = 0
KDO1 011509Z 01010KT 04/M05 A3038 RMK A01 T00391053  RH  051%=      5-min Rain = 0
KDO1 011510Z 01010KT 04/M05 A3038 RMK A01 T00401052  RH  051%=      5-min Rain = 0
KDO1 011511Z 02009KT 04/M05 A3038 RMK A01 T00411053  RH  050%=      5-min Rain = 0
KDO1 011512Z 01010KT 04/M05 A3038 RMK A01 T00411052  RH  051%=      5-min Rain = 0
KDO1 011513Z 00009KT 04/M05 A3038 RMK A01 T00421053  RH  050%=      5-min Rain = 0
KDO1 011514Z 01009KT 04/M05 A3038 RMK A01 T00431053  RH  050%=      5-min Rain = 0
KDO1 011515Z 01009KT 04/M05 A3038 RMK A01 T00431054  RH  049%=      5-min Rain = 0
KDO1 011516Z 00010KT 04/M05 A3038 RMK A01 T00431053  RH  049%=      5-min Rain = 0
KDO1 011517Z 01010KT 04/M05 A3038 RMK A01 T00441051  RH  050%=      5-min Rain = 0
KDO1 011518Z 01009KT 05/M05 A3038 RMK A01 T00451054  RH  049%=      5-min Rain = 0
KDO1 011519Z 00013KT 05/M05 A3038 RMK A01 T00451054  RH  049%=      5-min Rain = 0
KDO1 011520Z 01008G13KT 04/M06 A3038 RMK A01 T00441056  RH  048%=      5-min Rain = 0
KDO1 011521Z 02008KT 04/M06 A3038 RMK A01 T00431056  RH  049%=      5-min Rain = 0
KDO1 011522Z 01011KT 04/M06 A3038 RMK A01 T00441057  RH  048%=      5-min Rain = 0
KDO1 011523Z 01011KT 04/M06 A3038 RMK A01 T00441059  RH  047%=      5-min Rain = 0
KDO1 011524Z 02007KT 04/M06 A3038 RMK A01 T00431059  RH  048%=      5-min Rain = 0
KDO1 011525Z 02010KT 04/M06 A3038 RMK A01 T00431058  RH  048%=      5-min Rain = 0
KDO1 011526Z 02009KT 04/M06 A3038 RMK A01 T00441059  RH  047%=      5-min Rain = 0
KDO1 011527Z 01008KT 05/M06 A3038 RMK A01 T00451056  RH  048%=      5-min Rain = 0
KDO1 011528Z 01008KT 05/M06 A3038 RMK A01 T00461055  RH  048%=      5-min Rain = 0
KDO1 011529Z 01008KT 05/M05 A3038 RMK A01 T00491054  RH  047%=      5-min Rain = 0
KDO1 011530Z 02008KT 05/M06 A3038 RMK A01 T00501056  RH  046%=      5-min Rain = 0
KDO1 011531Z 01009KT 05/M06 A3038 RMK A01 T00501058  RH  046%=      5-min Rain = 0
KDO1 011532Z 02009KT 05/M06 A3038 RMK A01 T00501058  RH  046%=      5-min Rain = 0
KDO1 011533Z 01008G13KT 05/M06 A3038 RMK A01 T00491058  RH  046%=      5-min Rain = 0
KDO1 011534Z 01009KT 05/M06 A3038 RMK A01 T00501058  RH  045%=      5-min Rain = 0
KDO1 011535Z 02007KT 05/M06 A3038 RMK A01 T00491059  RH  046%=      5-min Rain = 0
KDO1 011536Z 02009KT 05/M06 A3038 RMK A01 T00491058  RH  046%=      5-min Rain = 0
KDO1 011537Z 02010KT 05/M06 A3039 RMK A01 T00511056  RH  046%=      5-min Rain = 0
KDO1 011538Z 03008KT 05/M06 A3039 RMK A01 T00521056  RH  045%=      5-min Rain = 0
KDO1 011539Z 02009KT 05/M06 A3039 RMK A01 T00541055  RH  045%=      5-min Rain = 0
KDO1 011540Z 01006KT 05/M06 A3039 RMK A01 T00541056  RH  045%=      5-min Rain = 0
KDO1 011541Z 02009KT 06/M06 A3039 RMK A01 T00551055  RH  045%=      5-min Rain = 0
KDO1 011542Z 02009KT 06/M06 A3039 RMK A01 T00561057  RH  044%=      5-min Rain = 0
KDO1 011543Z 03008KT 06/M06 A3039 RMK A01 T00561058  RH  044%=      5-min Rain = 0
KDO1 011544Z 03011KT 06/M06 A3039 RMK A01 T00561058  RH  044%=      5-min Rain = 0
KDO1 011545Z 01009KT 06/M06 A3039 RMK A01 T00551060  RH  043%=      5-min Rain = 0
KDO1 011546Z 02008KT 05/M06 A3038 RMK A01 T00541059  RH  044%=      5-min Rain = 0
KDO1 011547Z 02006KT 05/M06 A3038 RMK A01 T00531058  RH  044%=      5-min Rain = 0
KDO1 011548Z 02009KT 05/M06 A3038 RMK A01 T00541059  RH  044%=      5-min Rain = 0
KDO1 011549Z 03010KT 06/M06 A3038 RMK A01 T00551061  RH  043%=      5-min Rain = 0
KDO1 011550Z 03006KT 05/M06 A3038 RMK A01 T00541061  RH  043%=      5-min Rain = 0
KDO1 011551Z 02006G11KT 06/M06 A3038 RMK A01 T00561059  RH  043%=      5-min Rain = 0
KDO1 011552Z 02010KT 06/M06 A3038 RMK A01 T00581058  RH  043%=      5-min Rain = 0
KDO1 011553Z 02009KT 06/M06 A3038 RMK A01 T00591059  RH  043%=      5-min Rain = 0
KDO1 011554Z 01008KT 06/M06 A3038 RMK A01 T00581058  RH  043%=      5-min Rain = 0
KDO1 011555Z 01010KT 06/M06 A3038 RMK A01 T00581059  RH  043%=      5-min Rain = 0
KDO1 011556Z 01009KT 06/M06 A3038 RMK A01 T00571064  RH  041%=      5-min Rain = 0
KDO1 011557Z 02009KT 06/M06 A3038 RMK A01 T00551064  RH  042%=      5-min Rain = 0
KDO1 011558Z 02010KT 05/M06 A3038 RMK A01 T00541063  RH  043%=      5-min Rain = 0
KDO1 011559Z 01007KT 05/M06 A3038 RMK A01 T00541061  RH  043%=      5-min Rain = 0
KDO1 011600Z 36009KT 06/M06 A3038 RMK A01 T00561059  RH  043%=      5-min Rain = 0
KDO1 011601Z 01007KT 06/M06 A3038 RMK A01 T00581059  RH  043%=      5-min Rain = 0
KDO1 011602Z 02009KT 06/M06 A3038 RMK A01 T00601061  RH  042%=      5-min Rain = 0
KDO1 011603Z 02008KT 06/M06 A3038 RMK A01 T00601061  RH  042%=      5-min Rain = 0
KDO1 011604Z 01007KT 06/M06 A3038 RMK A01 T00611057  RH  042%=      5-min Rain = 0
KDO1 011605Z 00008KT 06/M06 A3038 RMK A01 T00631057  RH  042%=      5-min Rain = 0
KDO1 011606Z 36011KT 06/M06 A3038 RMK A01 T00621059  RH  041%=      5-min Rain = 0
KDO1 011607Z 01009KT 06/M06 A3038 RMK A01 T00601062  RH  041%=      5-min Rain = 0
KDO1 011608Z 02011KT 06/M06 A3039 RMK A01 T00601062  RH  041%=      5-min Rain = 0
KDO1 011609Z 02010KT 06/M06 A3039 RMK A01 T00611064  RH  040%=      5-min Rain = 0
KDO1 011610Z 02010KT 06/M07 A3039 RMK A01 T00601065  RH  040%=      5-min Rain = 0
KDO1 011611Z 03008KT 06/M06 A3039 RMK A01 T00601064  RH  040%=      5-min Rain = 0
KDO1 011612Z 03009KT 06/M06 A3039 RMK A01 T00601062  RH  041%=      5-min Rain = 0
KDO1 011613Z 02009KT 06/M06 A3039 RMK A01 T00621060  RH  041%=      5-min Rain = 0
KDO1 011614Z 00007KT 06/M06 A3039 RMK A01 T00621060  RH  041%=      5-min Rain = 0
KDO1 011615Z 01007KT 06/M06 A3039 RMK A01 T00621062  RH  040%=      5-min Rain = 0
KDO1 011616Z 01008KT 06/M06 A3039 RMK A01 T00631060  RH  041%=      5-min Rain = 0
KDO1 011617Z 02007KT 06/M06 A3039 RMK A01 T00631059  RH  041%=      5-min Rain = 0
KDO1 011618Z 02007KT 06/M06 A3039 RMK A01 T00621062  RH  041%=      5-min Rain = 0
KDO1 011619Z 01007KT 06/M06 A3039 RMK A01 T00611061  RH  041%=      5-min Rain = 0
KDO1 011620Z 35009G14KT 06/M06 A3039 RMK A01 T00601062  RH  041%=      5-min Rain = 0
KDO1 011621Z 36012KT 06/M06 A3039 RMK A01 T00601063  RH  041%=      5-min Rain = 0
KDO1 011622Z 35008KT 06/M06 A3039 RMK A01 T00591062  RH  041%=      5-min Rain = 0
KDO1 011623Z 36008KT 06/M06 A3039 RMK A01 T00591060  RH  042%=      5-min Rain = 0
KDO1 011624Z 00009KT 06/M06 A3039 RMK A01 T00591061  RH  042%=      5-min Rain = 0
KDO1 011625Z 01008KT 06/M06 A3039 RMK A01 T00591062  RH  041%=      5-min Rain = 0
KDO1 011626Z 02008KT 06/M06 A3039 RMK A01 T00581062  RH  042%=      5-min Rain = 0
KDO1 011627Z 01008KT 06/M06 A3039 RMK A01 T00591062  RH  042%=      5-min Rain = 0
KDO1 011628Z 00009KT 06/M07 A3039 RMK A01 T00601065  RH  040%=      5-min Rain = 0
KDO1 011629Z 01007KT 06/M06 A3039 RMK A01 T00601064  RH  041%=      5-min Rain = 0
KDO1 011630Z 00006KT 06/M06 A3039 RMK A01 T00591063  RH  041%=      5-min Rain = 0
KDO1 011631Z 01008KT 06/M06 A3039 RMK A01 T00601060  RH  042%=      5-min Rain = 0
KDO1 011632Z 01009KT 06/M06 A3039 RMK A01 T00611063  RH  040%=      5-min Rain = 0
KDO1 011633Z 01009KT 06/M07 A3039 RMK A01 T00621065  RH  040%=      5-min Rain = 0
KDO1 011634Z 01007KT 06/M07 A3039 RMK A01 T00621065  RH  040%=      5-min Rain = 0
KDO1 011635Z 00009KT 06/M06 A3039 RMK A01 T00621063  RH  040%=      5-min Rain = 0
KDO1 011636Z 00009KT 06/M06 A3039 RMK A01 T00621063  RH  040%=      5-min Rain = 0
KDO1 011637Z 00007KT 06/M06 A3039 RMK A01 T00611063  RH  041%=      5-min Rain = 0
KDO1 011638Z 01008KT 06/M06 A3039 RMK A01 T00611062  RH  041%=      5-min Rain = 0
KDO1 011639Z 01007KT 06/M06 A3039 RMK A01 T00621063  RH  040%=      5-min Rain = 0
KDO1 011640Z 03008KT 06/M06 A3039 RMK A01 T00631064  RH  040%=      5-min Rain = 0
KDO1 011641Z 01008KT 06/M07 A3039 RMK A01 T00641065  RH  039%=      5-min Rain = 0
KDO1 011642Z 00006KT 06/M06 A3039 RMK A01 T00631063  RH  040%=      5-min Rain = 0
KDO1 011643Z 01006KT 06/M06 A3039 RMK A01 T00641061  RH  040%=      5-min Rain = 0
KDO1 011644Z 01005KT 06/M06 A3039 RMK A01 T00641062  RH  040%=      5-min Rain = 0
KDO1 011645Z 36008KT 07/M06 A3039 RMK A01 T00651062  RH  040%=      5-min Rain = 0
KDO1 011646Z 00008KT 07/M06 A3039 RMK A01 T00651063  RH  039%=      5-min Rain = 0
KDO1 011647Z 01007KT 07/M07 A3039 RMK A01 T00661065  RH  039%=      5-min Rain = 0
KDO1 011648Z 01008KT 07/M07 A3039 RMK A01 T00651065  RH  039%=      5-min Rain = 0
KDO1 011649Z 03009KT 07/M07 A304 RMK A01 T00661069  RH  037%=      5-min Rain = 0
KDO1 011650Z 04007KT 07/M07 A304 RMK A01 T00671071  RH  037%=      5-min Rain = 0
KDO1 011651Z 03008KT 07/M07 A304 RMK A01 T00681069  RH  037%=      5-min Rain = 0
KDO1 011652Z 02005KT 07/M07 A304 RMK A01 T00691067  RH  037%=      5-min Rain = 0
KDO1 011653Z 01008KT 07/M07 A304 RMK A01 T00711065  RH  037%=      5-min Rain = 0
KDO1 011654Z 04007KT 07/M07 A304 RMK A01 T00711068  RH  036%=      5-min Rain = 0
KDO1 011655Z 04010KT 07/M07 A304 RMK A01 T00741070  RH  035%=      5-min Rain = 0
KDO1 011656Z 04008KT 07/M07 A304 RMK A01 T00741074  RH  034%=      5-min Rain = 0
KDO1 011657Z 03005KT 08/M07 A304 RMK A01 T00751074  RH  034%=      5-min Rain = 0
KDO1 011658Z 04004KT 08/M07 A304 RMK A01 T00761068  RH  035%=      5-min Rain = 0
KDO1 011659Z 03007KT 08/M07 A304 RMK A01 T00781066  RH  035%=      5-min Rain = 0
KDO1 011700Z 02007KT 08/M06 A304 RMK A01 T00811064  RH  035%=      5-min Rain = 0
KDO1 011701Z 05008KT 08/M07 A304 RMK A01 T00811066  RH  035%=      5-min Rain = 0
KDO1 011702Z 04008KT 08/M07 A304 RMK A01 T00791069  RH  034%=      5-min Rain = 0
KDO1 011703Z 03009KT 08/M07 A304 RMK A01 T00781073  RH  034%=      5-min Rain = 0
KDO1 011704Z 03011KT 08/M08 A304 RMK A01 T00781077  RH  032%=      5-min Rain = 0
KDO1 011705Z 04009KT 08/M08 A304 RMK A01 T00791080  RH  031%=      5-min Rain = 0
KDO1 011706Z 04008KT 08/M08 A304 RMK A01 T00781078  RH  032%=      5-min Rain = 0
KDO1 011707Z 04007KT 08/M07 A304 RMK A01 T00771074  RH  033%=      5-min Rain = 0
KDO1 011708Z 04008KT 08/M07 A304 RMK A01 T00801074  RH  033%=      5-min Rain = 0
KDO1 011709Z 04008KT 08/M07 A3041 RMK A01 T00821074  RH  032%=      5-min Rain = 0
KDO1 011710Z 03007KT 08/M08 A3041 RMK A01 T00811076  RH  032%=      5-min Rain = 0
KDO1 011711Z 03005KT 08/M07 A3041 RMK A01 T00801074  RH  033%=      5-min Rain = 0
KDO1 011712Z 01008KT 08/M07 A3041 RMK A01 T00841065  RH  034%=      5-min Rain = 0
KDO1 011713Z 02008KT 09/M08 A3041 RMK A01 T00851077  RH  031%=      5-min Rain = 0
KDO1 011714Z 01006KT 08/M08 A3041 RMK A01 T00821076  RH  032%=      5-min Rain = 0
KDO1 011715Z 00008KT 08/M08 A3041 RMK A01 T00821079  RH  031%=      5-min Rain = 0
KDO1 011716Z 02007KT 08/M08 A3041 RMK A01 T00821076  RH  032%=      5-min Rain = 0
KDO1 011717Z 04007KT 08/M08 A3041 RMK A01 T00831075  RH  032%=      5-min Rain = 0
KDO1 011718Z 03008KT 08/M07 A3041 RMK A01 T00841074  RH  032%=      5-min Rain = 0
KDO1 011719Z 01008KT 08/M08 A3041 RMK A01 T00831075  RH  032%=      5-min Rain = 0
KDO1 011720Z 01007KT 08/M07 A3041 RMK A01 T00831072  RH  033%=      5-min Rain = 0
KDO1 011721Z 03007KT 08/M07 A3041 RMK A01 T00821072  RH  033%=      5-min Rain = 0
KDO1 011722Z 02009KT 09/M07 A3041 RMK A01 T00861074  RH  031%=      5-min Rain = 0
KDO1 011723Z 03011KT 09/M09 A3041 RMK A01 T00871086  RH  028%=      5-min Rain = 0
KDO1 011724Z 02009KT 09/M09 A3041 RMK A01 T00851091  RH  028%=      5-min Rain = 0
KDO1 011725Z 01007KT 08/M09 A3041 RMK A01 T00841088  RH  028%=      5-min Rain = 0
KDO1 011726Z 01010KT 09/M09 A3041 RMK A01 T00851085  RH  029%=      5-min Rain = 0
KDO1 011727Z 02009G14KT 09/M08 A3041 RMK A01 T00861081  RH  030%=      5-min Rain = 0
KDO1 011728Z 04007KT 09/M08 A3041 RMK A01 T00881078  RH  030%=      5-min Rain = 0
KDO1 011729Z 04008KT 09/M08 A3041 RMK A01 T00931080  RH  029%=      5-min Rain = 0
KDO1 011730Z 05005KT 09/M09 A3041 RMK A01 T00901091  RH  027%=      5-min Rain = 0
KDO1 011731Z 02006G12KT 09/M08 A3041 RMK A01 T00881084  RH  029%=      5-min Rain = 0
KDO1 011732Z 02008KT 09/M09 A3041 RMK A01 T00881085  RH  028%=      5-min Rain = 0
KDO1 011733Z 01009KT 09/M09 A3041 RMK A01 T00871086  RH  028%=      5-min Rain = 0
KDO1 011734Z 03008KT 09/M09 A3041 RMK A01 T00891085  RH  028%=      5-min Rain = 0
KDO1 011735Z 04010KT 09/M09 A3041 RMK A01 T00911089  RH  027%=      5-min Rain = 0
KDO1 011736Z 04011KT 09/M09 A3041 RMK A01 T00921092  RH  026%=      5-min Rain = 0
KDO1 011737Z 04010KT 09/M09 A3041 RMK A01 T00921092  RH  026%=      5-min Rain = 0
KDO1 011738Z 03010KT 09/M09 A3041 RMK A01 T00921093  RH  026%=      5-min Rain = 0
KDO1 011739Z 04010KT 09/M10 A3041 RMK A01 T00911096  RH  026%=      5-min Rain = 0
KDO1 011740Z 04009KT 09/M09 A3041 RMK A01 T00901093  RH  026%=      5-min Rain = 0
KDO1 011741Z 05008KT 09/M09 A3041 RMK A01 T00911091  RH  027%=      5-min Rain = 0
KDO1 011742Z 05011KT 09/M09 A3041 RMK A01 T00931091  RH  026%=      5-min Rain = 0
KDO1 011743Z 05008KT 09/M09 A3041 RMK A01 T00941094  RH  026%=      5-min Rain = 0
KDO1 011744Z 04010KT 09/M09 A3041 RMK A01 T00941093  RH  026%=      5-min Rain = 0
KDO1 011745Z 03011KT 09/M10 A3041 RMK A01 T00941097  RH  025%=      5-min Rain = 0
KDO1 011746Z 04010KT 09/M10 A3041 RMK A01 T00921098  RH  025%=      5-min Rain = 0
KDO1 011747Z 04012KT 09/M10 A3041 RMK A01 T00921095  RH  026%=      5-min Rain = 0
KDO1 011748Z 05010KT 09/M10 A3041 RMK A01 T00921097  RH  025%=      5-min Rain = 0
KDO1 011749Z 04010KT 09/M10 A3041 RMK A01 T00911097  RH  025%=      5-min Rain = 0
KDO1 011750Z 03010KT 09/M10 A3041 RMK A01 T00911101  RH  025%=      5-min Rain = 0
KDO1 011751Z 04009KT 09/M10 A3041 RMK A01 T00901099  RH  025%=      5-min Rain = 0
KDO1 011752Z 04008KT 09/M10 A3041 RMK A01 T00911096  RH  026%=      5-min Rain = 0
KDO1 011753Z 06012KT 09/M10 A3041 RMK A01 T00941096  RH  025%=      5-min Rain = 0
KDO1 011754Z 05011KT 10/M11 A3041 RMK A01 T00961105  RH  023%=      5-min Rain = 0
KDO1 011755Z 04011G16KT 10/M11 A3041 RMK A01 T00951106  RH  023%=      5-min Rain = 0
KDO1 011756Z 04009KT 09/M10 A3041 RMK A01 T00941102  RH  024%=      5-min Rain = 0
KDO1 011757Z 04009KT 10/M10 A3041 RMK A01 T00951101  RH  024%=      5-min Rain = 0
KDO1 011758Z 05008KT 10/M10 A3041 RMK A01 T00951104  RH  023%=      5-min Rain = 0
KDO1 011759Z 04007KT 10/M10 A3041 RMK A01 T00961101  RH  024%=      5-min Rain = 0
KDO1 011800Z 03006KT 10/M10 A3041 RMK A01 T00981097  RH  024%=      5-min Rain = 0
KDO1 011801Z 02008KT 10/M10 A3041 RMK A01 T00981099  RH  024%=      5-min Rain = 0
KDO1 011802Z 02008KT 10/M10 A3041 RMK A01 T00971098  RH  024%=      5-min Rain = 0
KDO1 011803Z 05009KT 10/M10 A3041 RMK A01 T00971097  RH  024%=      5-min Rain = 0
KDO1 011804Z 06010KT 10/M10 A3041 RMK A01 T00971095  RH  025%=      5-min Rain = 0
KDO1 011805Z 05009KT 10/M09 A3041 RMK A01 T00981093  RH  025%=      5-min Rain = 0
KDO1 011806Z 06008KT 10/M10 A3041 RMK A01 T00991096  RH  024%=      5-min Rain = 0
KDO1 011807Z 06010KT 10/M10 A3041 RMK A01 T01001098  RH  024%=      5-min Rain = 0
KDO1 011808Z 04009KT 10/M10 A3041 RMK A01 T01001101  RH  023%=      5-min Rain = 0
KDO1 011809Z 03007KT 10/M10 A3041 RMK A01 T00991102  RH  023%=      5-min Rain = 0
KDO1 011810Z 04008KT 10/M10 A3041 RMK A01 T00991100  RH  024%=      5-min Rain = 0
KDO1 011811Z 05007KT 10/M10 A3041 RMK A01 T00981101  RH  023%=      5-min Rain = 0
KDO1 011812Z 06009KT 10/M10 A3041 RMK A01 T00971101  RH  024%=      5-min Rain = 0
KDO1 011813Z 07008KT 10/M10 A304 RMK A01 T00961102  RH  024%=      5-min Rain = 0
KDO1 011814Z 06010KT 10/M10 A304 RMK A01 T00961103  RH  023%=      5-min Rain = 0
KDO1 011815Z 04010KT 10/M10 A304 RMK A01 T00961103  RH  023%=      5-min Rain = 0
KDO1 011816Z 04010KT 10/M11 A304 RMK A01 T00961105  RH  023%=      5-min Rain = 0
KDO1 011817Z 03012KT 10/M11 A304 RMK A01 T00961107  RH  023%=      5-min Rain = 0
KDO1 011818Z 05009KT 10/M12 A304 RMK A01 T00961117  RH  021%=      5-min Rain = 0
KDO1 011819Z 05008KT 10/M12 A304 RMK A01 T00951118  RH  021%=      5-min Rain = 0
KDO1 011820Z 05009KT 10/M11 A304 RMK A01 T00961112  RH  022%=      5-min Rain = 0
KDO1 011821Z 06011KT 10/M11 A304 RMK A01 T00981109  RH  022%=      5-min Rain = 0
KDO1 011822Z 06011KT 10/M11 A304 RMK A01 T00971111  RH  022%=      5-min Rain = 0
KDO1 011823Z 05010KT 10/M11 A304 RMK A01 T00971110  RH  022%=      5-min Rain = 0
KDO1 011824Z 04011KT 10/M11 A304 RMK A01 T00971113  RH  021%=      5-min Rain = 0
KDO1 011825Z 03011KT 10/M12 A304 RMK A01 T00981117  RH  021%=      5-min Rain = 0
KDO1 011826Z 02011KT 10/M12 A304 RMK A01 T00961117  RH  021%=      5-min Rain = 0
KDO1 011827Z 04009KT 10/M11 A304 RMK A01 T00971114  RH  021%=      5-min Rain = 0
KDO1 011828Z 03009KT 10/M11 A304 RMK A01 T00991113  RH  021%=      5-min Rain = 0
KDO1 011829Z 04007KT 10/M11 A304 RMK A01 T01001111  RH  021%=      5-min Rain = 0
KDO1 011830Z 04008KT 10/M11 A304 RMK A01 T01021114  RH  021%=      5-min Rain = 0
KDO1 011831Z 03008KT 10/M12 A304 RMK A01 T01001122  RH  020%=      5-min Rain = 0
KDO1 011832Z 04009KT 10/M12 A304 RMK A01 T00991122  RH  020%=      5-min Rain = 0
KDO1 011833Z 03010KT 10/M12 A304 RMK A01 T01001118  RH  020%=      5-min Rain = 0
KDO1 011834Z 02009KT 10/M12 A304 RMK A01 T01021118  RH  020%=      5-min Rain = 0
KDO1 011835Z 05007KT 10/M12 A304 RMK A01 T01021117  RH  020%=      5-min Rain = 0
KDO1 011836Z 07009KT 10/M11 A304 RMK A01 T01041113  RH  020%=      5-min Rain = 0
KDO1 011837Z 05008KT 11/M12 A304 RMK A01 T01061119  RH  019%=      5-min Rain = 0
KDO1 011838Z 04009KT 11/M12 A304 RMK A01 T01061116  RH  020%=      5-min Rain = 0
KDO1 011839Z 04007KT 11/M12 A304 RMK A01 T01061118  RH  019%=      5-min Rain = 0
KDO1 011840Z 03011KT 11/M12 A304 RMK A01 T01051122  RH  019%=      5-min Rain = 0
KDO1 011841Z 03011G16KT 11/M13 A304 RMK A01 T01061131  RH  018%=      5-min Rain = 0
KDO1 011842Z 04013KT 11/M13 A304 RMK A01 T01071134  RH  017%=      5-min Rain = 0
KDO1 011843Z 04012KT 11/M14 A304 RMK A01 T01061137  RH  017%=      5-min Rain = 0
KDO1 011844Z 05011KT 11/M14 A304 RMK A01 T01051137  RH  017%=      5-min Rain = 0
KDO1 011845Z 05012KT 11/M13 A304 RMK A01 T01051134  RH  017%=      5-min Rain = 0
KDO1 011846Z 04012KT 10/M14 A304 RMK A01 T01031138  RH  017%=      5-min Rain = 0
KDO1 011847Z 04011KT 10/M14 A304 RMK A01 T01021139  RH  017%=      5-min Rain = 0
KDO1 011848Z 05010KT 10/M14 A304 RMK A01 T01021141  RH  017%=      5-min Rain = 0
KDO1 011849Z 05010KT 10/M14 A304 RMK A01 T01021136  RH  017%=      5-min Rain = 0
KDO1 011850Z 05008KT 10/M13 A3039 RMK A01 T01021133  RH  018%=      5-min Rain = 0
KDO1 011851Z 03011KT 10/M13 A304 RMK A01 T01031129  RH  018%=      5-min Rain = 0
KDO1 011852Z 03009KT 10/M13 A3039 RMK A01 T01031129  RH  018%=      5-min Rain = 0
KDO1 011853Z 02010KT 10/M13 A3039 RMK A01 T01031125  RH  019%=      5-min Rain = 0
KDO1 011854Z 03011KT 10/M13 A3039 RMK A01 T01041127  RH  018%=      5-min Rain = 0
KDO1 011855Z 03011KT 10/M13 A3039 RMK A01 T01031127  RH  018%=      5-min Rain = 0
KDO1 011856Z 04009KT 10/M12 A3039 RMK A01 T01011124  RH  019%=      5-min Rain = 0
KDO1 011857Z 03010KT 10/M12 A3039 RMK A01 T01021119  RH  020%=      5-min Rain = 0
KDO1 011858Z 03007KT 10/M12 A3039 RMK A01 T01031119  RH  020%=      5-min Rain = 0
KDO1 011859Z 03010KT 10/M12 A3039 RMK A01 T01041118  RH  020%=      5-min Rain = 0
KDO1 011900Z 03011KT 11/M13 A3039 RMK A01 T01071126  RH  018%=      5-min Rain = 0
KDO1 011901Z 05012KT 11/M13 A3039 RMK A01 T01071126  RH  018%=      5-min Rain = 0
KDO1 011902Z 05010KT 11/M13 A3039 RMK A01 T01071126  RH  018%=      5-min Rain = 0
KDO1 011903Z 04010KT 11/M13 A3039 RMK A01 T01081125  RH  018%=      5-min Rain = 0
KDO1 011904Z 05009KT 11/M13 A3039 RMK A01 T01081128  RH  018%=      5-min Rain = 0
KDO1 011905Z 06011KT 11/M13 A3038 RMK A01 T01081128  RH  018%=      5-min Rain = 0
KDO1 011906Z 05011KT 11/M13 A3038 RMK A01 T01091125  RH  018%=      5-min Rain = 0
KDO1 011907Z 06012KT 11/M13 A3038 RMK A01 T01101130  RH  017%=      5-min Rain = 0
KDO1 011908Z 05010KT 11/M13 A3038 RMK A01 T01091133  RH  017%=      5-min Rain = 0
KDO1 011909Z 04012KT 11/M13 A3039 RMK A01 T01081133  RH  017%=      5-min Rain = 0
KDO1 011910Z 04011KT 11/M14 A3039 RMK A01 T01081137  RH  017%=      5-min Rain = 0
KDO1 011911Z 05011KT 11/M14 A3039 RMK A01 T01081135  RH  017%=      5-min Rain = 0
KDO1 011912Z 05012KT 11/M13 A3039 RMK A01 T01101131  RH  017%=      5-min Rain = 0
KDO1 011913Z 05011KT 11/M13 A3039 RMK A01 T01111133  RH  017%=      5-min Rain = 0
KDO1 011914Z 04008KT 11/M13 A3039 RMK A01 T01101130  RH  017%=      5-min Rain = 0
KDO1 011915Z 05008KT 11/M13 A3039 RMK A01 T01111129  RH  017%=      5-min Rain = 0
KDO1 011916Z 06010KT 11/M13 A3039 RMK A01 T01131127  RH  017%=      5-min Rain = 0
KDO1 011917Z 06009G14KT 11/M13 A3039 RMK A01 T01121128  RH  017%=      5-min Rain = 0
KDO1 011918Z 05012KT 11/M12 A3039 RMK A01 T01141124  RH  018%=      5-min Rain = 0
KDO1 011919Z 04013KT 12/M13 A3039 RMK A01 T01151128  RH  017%=      5-min Rain = 0
KDO1 011920Z 06010KT 11/M14 A3039 RMK A01 T01121135  RH  016%=      5-min Rain = 0
KDO1 011921Z 06007KT 11/M13 A3038 RMK A01 T01111133  RH  017%=      5-min Rain = 0
KDO1 011922Z 06010KT 11/M13 A3038 RMK A01 T01121128  RH  017%=      5-min Rain = 0
KDO1 011923Z 06007KT 11/M13 A3038 RMK A01 T01121128  RH  017%=      5-min Rain = 0
KDO1 011924Z 05008KT 11/M13 A3038 RMK A01 T01111126  RH  018%=      5-min Rain = 0
KDO1 011925Z 03008KT 11/M13 A3038 RMK A01 T01121129  RH  017%=      5-min Rain = 0
KDO1 011926Z 04012KT 11/M13 A3038 RMK A01 T01121130  RH  017%=      5-min Rain = 0
KDO1 011927Z 04009KT 11/M13 A3038 RMK A01 T01111132  RH  017%=      5-min Rain = 0
KDO1 011928Z 04008KT 11/M13 A3038 RMK A01 T01111132  RH  017%=      5-min Rain = 0
KDO1 011929Z 03010KT 11/M13 A3038 RMK A01 T01111125  RH  018%=      5-min Rain = 0
KDO1 011930Z 02007KT 11/M13 A3038 RMK A01 T01131125  RH  018%=      5-min Rain = 0
KDO1 011931Z 02006KT 11/M13 A3038 RMK A01 T01121125  RH  018%=      5-min Rain = 0
KDO1 011932Z 04007KT 11/M12 A3038 RMK A01 T01121121  RH  018%=      5-min Rain = 0
KDO1 011933Z 06006KT 12/M12 A3038 RMK A01 T01161117  RH  018%=      5-min Rain = 0
KDO1 011934Z 06009KT 12/M12 A3038 RMK A01 T01181120  RH  018%=      5-min Rain = 0
KDO1 011935Z 04009KT 12/M12 A3038 RMK A01 T01191123  RH  017%=      5-min Rain = 0
KDO1 011936Z 04009KT 12/M13 A3038 RMK A01 T01181125  RH  017%=      5-min Rain = 0
KDO1 011937Z 02009KT 12/M13 A3038 RMK A01 T01171125  RH  017%=      5-min Rain = 0
KDO1 011938Z 03009KT 12/M13 A3037 RMK A01 T01181129  RH  017%=      5-min Rain = 0
KDO1 011939Z 04009KT 12/M13 A3037 RMK A01 T01211125  RH  017%=      5-min Rain = 0
KDO1 011940Z 04006KT 12/M14 A3037 RMK A01 T01201137  RH  015%=      5-min Rain = 0
KDO1 011941Z 04012KT 12/M14 A3038 RMK A01 T01161137  RH  016%=      5-min Rain = 0
KDO1 011942Z 04012KT 12/M14 A3038 RMK A01 T01161136  RH  016%=      5-min Rain = 0
KDO1 011943Z 06009KT 12/M14 A3038 RMK A01 T01161135  RH  016%=      5-min Rain = 0
KDO1 011944Z 06010G15KT 12/M14 A3037 RMK A01 T01161135  RH  016%=      5-min Rain = 0
KDO1 011945Z 04010KT 12/M13 A3037 RMK A01 T01171129  RH  016%=      5-min Rain = 0
KDO1 011946Z 03009KT 12/M13 A3037 RMK A01 T01191133  RH  016%=      5-min Rain = 0
KDO1 011947Z 04006KT 12/M14 A3037 RMK A01 T01161138  RH  016%=      5-min Rain = 0
KDO1 011948Z 04010KT 12/M14 A3037 RMK A01 T01151137  RH  016%=      5-min Rain = 0
KDO1 011949Z 03008KT 11/M14 A3037 RMK A01 T01141138  RH  016%=      5-min Rain = 0
KDO1 011950Z 03010KT 11/M14 A3037 RMK A01 T01141135  RH  016%=      5-min Rain = 0
KDO1 011951Z 04011KT 11/M13 A3037 RMK A01 T01141134  RH  016%=      5-min Rain = 0
KDO1 011952Z 05010KT 12/M13 A3037 RMK A01 T01151133  RH  016%=      5-min Rain = 0
KDO1 011953Z 05008KT 12/M13 A3037 RMK A01 T01161133  RH  016%=      5-min Rain = 0
KDO1 011954Z 06009KT 12/M13 A3037 RMK A01 T01161134  RH  016%=      5-min Rain = 0
KDO1 011955Z 05009KT 12/M13 A3037 RMK A01 T01171133  RH  016%=      5-min Rain = 0
KDO1 011956Z 06008KT 12/M14 A3037 RMK A01 T01191139  RH  015%=      5-min Rain = 0
KDO1 011957Z 05011KT 12/M13 A3037 RMK A01 T01171134  RH  016%=      5-min Rain = 0
KDO1 011958Z 05010KT 12/M13 A3037 RMK A01 T01181131  RH  016%=      5-min Rain = 0
KDO1 011959Z 05005KT 12/M14 A3037 RMK A01 T01181135  RH  016%=      5-min Rain = 0
KDO1 012000Z 05002KT 12/M14 A3037 RMK A01 T01171139  RH  015%=      5-min Rain = 0
KDO1 012001Z 06002G9KT 12/M14 A3037 RMK A01 T01151140  RH  015%=      5-min Rain = 0
KDO1 012002Z 05010G16KT 12/M13 A3037 RMK A01 T01161134  RH  016%=      5-min Rain = 0
KDO1 012003Z 03010KT 12/M13 A3037 RMK A01 T01191129  RH  016%=      5-min Rain = 0
KDO1 012004Z 04010KT 12/M13 A3037 RMK A01 T01201134  RH  016%=      5-min Rain = 0
KDO1 012005Z 06009KT 12/M13 A3037 RMK A01 T01211132  RH  016%=      5-min Rain = 0
KDO1 012006Z 04009KT 12/M13 A3037 RMK A01 T01221133  RH  015%=      5-min Rain = 0
KDO1 012007Z 05010KT 12/M13 A3037 RMK A01 T01241131  RH  016%=      5-min Rain = 0
KDO1 012008Z 04008KT 12/M14 A3037 RMK A01 T01231142  RH  014%=      5-min Rain = 0
KDO1 012009Z 05007KT 12/M14 A3037 RMK A01 T01211137  RH  015%=      5-min Rain = 0
KDO1 012010Z 05008KT 12/M14 A3036 RMK A01 T01211136  RH  015%=      5-min Rain = 0
KDO1 012011Z 06008KT 12/M14 A3036 RMK A01 T01201135  RH  015%=      5-min Rain = 0
KDO1 012012Z 06012KT 12/M13 A3036 RMK A01 T01201133  RH  016%=      5-min Rain = 0
KDO1 012013Z 06008G13KT 12/M13 A3036 RMK A01 T01211132  RH  016%=      5-min Rain = 0
KDO1 012014Z 05009KT 12/M13 A3036 RMK A01 T01231128  RH  016%=      5-min Rain = 0
KDO1 012015Z 05008KT 12/M13 A3036 RMK A01 T01201134  RH  016%=      5-min Rain = 0
KDO1 012016Z 05006G11KT 12/M14 A3036 RMK A01 T01171137  RH  015%=      5-min Rain = 0
KDO1 012017Z 05008KT 12/M13 A3036 RMK A01 T01171134  RH  016%=      5-min Rain = 0
KDO1 012018Z 05006KT 12/M14 A3036 RMK A01 T01181139  RH  015%=      5-min Rain = 0
KDO1 012019Z 02006KT 12/M14 A3036 RMK A01 T01181135  RH  016%=      5-min Rain = 0
KDO1 012020Z 06005KT 12/M13 A3036 RMK A01 T01211130  RH  016%=      5-min Rain = 0
KDO1 012021Z 05008KT 12/M13 A3036 RMK A01 T01231133  RH  015%=      5-min Rain = 0
KDO1 012022Z 05009KT 12/M13 A3036 RMK A01 T01221134  RH  015%=      5-min Rain = 0
KDO1 012023Z 06010KT 12/M13 A3036 RMK A01 T01211134  RH  015%=      5-min Rain = 0
KDO1 012024Z 04010KT 12/M13 A3036 RMK A01 T01201133  RH  016%=      5-min Rain = 0
KDO1 012025Z 05007KT 12/M13 A3036 RMK A01 T01201131  RH  016%=      5-min Rain = 0
KDO1 012026Z 02008KT 12/M13 A3036 RMK A01 T01201129  RH  016%=      5-min Rain = 0
KDO1 012027Z 04009KT 12/M13 A3036 RMK A01 T01201125  RH  017%=      5-min Rain = 0
KDO1 012028Z 04008KT 12/M13 A3036 RMK A01 T01201133  RH  016%=      5-min Rain = 0
KDO1 012029Z 07004KT 12/M14 A3036 RMK A01 T01171136  RH  016%=      5-min Rain = 0
KDO1 012030Z 07007KT 12/M13 A3036 RMK A01 T01161132  RH  016%=      5-min Rain = 0
KDO1 012031Z 08007KT 12/M13 A3036 RMK A01 T01171132  RH  016%=      5-min Rain = 0
KDO1 012032Z 08008KT 12/M13 A3036 RMK A01 T01191126  RH  017%=      5-min Rain = 0
KDO1 012033Z 09006KT 12/M13 A3036 RMK A01 T01211129  RH  016%=      5-min Rain = 0
KDO1 012034Z 08004KT 12/M13 A3036 RMK A01 T01201130  RH  016%=      5-min Rain = 0
KDO1 012035Z 04003KT 12/M13 A3036 RMK A01 T01211125  RH  017%=      5-min Rain = 0
KDO1 012036Z 00004KT 12/M12 A3036 RMK A01 T01221122  RH  017%=      5-min Rain = 0
KDO1 012037Z 03007KT 13/M12 A3035 RMK A01 T01251116  RH  018%=      5-min Rain = 0
KDO1 012038Z 03007KT 13/M13 A3035 RMK A01 T01261130  RH  015%=      5-min Rain = 0
KDO1 012039Z 06005KT 12/M14 A3035 RMK A01 T01241135  RH  015%=      5-min Rain = 0
KDO1 012040Z 02005KT 12/M13 A3035 RMK A01 T01231133  RH  015%=      5-min Rain = 0
KDO1 012041Z 36009KT 12/M13 A3035 RMK A01 T01241131  RH  016%=      5-min Rain = 0
KDO1 012042Z 05011G17KT 13/M13 A3035 RMK A01 T01261126  RH  016%=      5-min Rain = 0
KDO1 012043Z 05010KT 13/M13 A3035 RMK A01 T01261130  RH  015%=      5-min Rain = 0
KDO1 012044Z 03010KT 13/M13 A3035 RMK A01 T01261127  RH  016%=      5-min Rain = 0
KDO1 012045Z 02009KT 13/M12 A3035 RMK A01 T01261123  RH  016%=      5-min Rain = 0
KDO1 012046Z 02008KT 13/M12 A3035 RMK A01 T01271124  RH  016%=      5-min Rain = 0
KDO1 012047Z 03008KT 13/M12 A3035 RMK A01 T01261123  RH  016%=      5-min Rain = 0
KDO1 012048Z 01008KT 13/M13 A3035 RMK A01 T01251126  RH  016%=      5-min Rain = 0
KDO1 012049Z 02010KT 12/M13 A3035 RMK A01 T01241129  RH  016%=      5-min Rain = 0
KDO1 012050Z 03008KT 12/M13 A3035 RMK A01 T01221133  RH  015%=      5-min Rain = 0
KDO1 012051Z 03007KT 12/M13 A3035 RMK A01 T01211131  RH  016%=      5-min Rain = 0
KDO1 012052Z 04006KT 12/M13 A3035 RMK A01 T01211131  RH  016%=      5-min Rain = 0
KDO1 012053Z 05006KT 12/M13 A3035 RMK A01 T01211129  RH  016%=      5-min Rain = 0
KDO1 012054Z 03003KT 12/M13 A3035 RMK A01 T01221126  RH  016%=      5-min Rain = 0
KDO1 012055Z 01003KT 12/M13 A3035 RMK A01 T01221127  RH  016%=      5-min Rain = 0
KDO1 012056Z 00003KT 12/M13 A3035 RMK A01 T01221128  RH  016%=      5-min Rain = 0
KDO1 012057Z 35003KT 12/M13 A3035 RMK A01 T01221128  RH  016%=      5-min Rain = 0
KDO1 012058Z 36003KT 12/M13 A3035 RMK A01 T01221127  RH  016%=      5-min Rain = 0
KDO1 012059Z 31001KT 12/M12 A3035 RMK A01 T01241120  RH  017%=      5-min Rain = 0
KDO1 012100Z 01004KT 13/M12 A3035 RMK A01 T01271120  RH  017%=      5-min Rain = 0
KDO1 012101Z 35003KT 13/M13 A3035 RMK A01 T01271126  RH  016%=      5-min Rain = 0
KDO1 012102Z 34004KT 13/M12 A3035 RMK A01 T01261121  RH  017%=      5-min Rain = 0
KDO1 012103Z 02005KT 13/M13 A3035 RMK A01 T01261125  RH  016%=      5-min Rain = 0
KDO1 012104Z 03008KT 12/M13 A3035 RMK A01 T01241132  RH  015%=      5-min Rain = 0
KDO1 012105Z 02009KT 12/M13 A3035 RMK A01 T01231131  RH  016%=      5-min Rain = 0
KDO1 012106Z 02009KT 12/M13 A3035 RMK A01 T01221130  RH  016%=      5-min Rain = 0
KDO1 012107Z 05009KT 12/M13 A3035 RMK A01 T01211133  RH  016%=      5-min Rain = 0
KDO1 012108Z 05009KT 12/M14 A3035 RMK A01 T01201137  RH  015%=      5-min Rain = 0
KDO1 012109Z 05007KT 12/M14 A3035 RMK A01 T01221141  RH  015%=      5-min Rain = 0
KDO1 012110Z 06008KT 12/M15 A3035 RMK A01 T01221145  RH  014%=      5-min Rain = 0
KDO1 012111Z 07009KT 12/M14 A3035 RMK A01 T01221142  RH  014%=      5-min Rain = 0
KDO1 012112Z 07008KT 12/M15 A3035 RMK A01 T01221145  RH  014%=      5-min Rain = 0
KDO1 012113Z 07007KT 12/M14 A3035 RMK A01 T01221142  RH  014%=      5-min Rain = 0
KDO1 012114Z 05007KT 13/M14 A3035 RMK A01 T01251135  RH  015%=      5-min Rain = 0
KDO1 012115Z 03005KT 13/M14 A3035 RMK A01 T01261135  RH  015%=      5-min Rain = 0
KDO1 012116Z 04004KT 12/M14 A3035 RMK A01 T01231137  RH  015%=      5-min Rain = 0
KDO1 012117Z 06003KT 12/M13 A3035 RMK A01 T01221134  RH  015%=      5-min Rain = 0
KDO1 012118Z 06006KT 12/M13 A3035 RMK A01 T01221132  RH  016%=      5-min Rain = 0
KDO1 012119Z 09006KT 12/M14 A3035 RMK A01 T01221135  RH  015%=      5-min Rain = 0
KDO1 012120Z 07006KT 12/M14 A3035 RMK A01 T01201135  RH  015%=      5-min Rain = 0
KDO1 012121Z 07004KT 12/M13 A3035 RMK A01 T01201132  RH  016%=      5-min Rain = 0
KDO1 012122Z 09005KT 12/M13 A3035 RMK A01 T01211132  RH  016%=      5-min Rain = 0
KDO1 012123Z 11005KT 12/M14 A3035 RMK A01 T01211135  RH  015%=      5-min Rain = 0
KDO1 012124Z 11004KT 12/M14 A3035 RMK A01 T01211135  RH  015%=      5-min Rain = 0
KDO1 012125Z 11003KT 12/M14 A3035 RMK A01 T01201139  RH  015%=      5-min Rain = 0
KDO1 012126Z 07002KT 12/M14 A3035 RMK A01 T01191140  RH  015%=      5-min Rain = 0
KDO1 012127Z 03003KT 12/M13 A3035 RMK A01 T01191133  RH  016%=      5-min Rain = 0
KDO1 012128Z 05005KT 12/M13 A3035 RMK A01 T01211132  RH  016%=      5-min Rain = 0
KDO1 012129Z 04006KT 12/M13 A3035 RMK A01 T01221130  RH  016%=      5-min Rain = 0
KDO1 012130Z 05006KT 12/M13 A3035 RMK A01 T01231130  RH  016%=      5-min Rain = 0
KDO1 012131Z 04007KT 12/M13 A3035 RMK A01 T01231130  RH  016%=      5-min Rain = 0
KDO1 012132Z 04007KT 12/M13 A3035 RMK A01 T01231127  RH  016%=      5-min Rain = 0
KDO1 012133Z 03004KT 12/M13 A3035 RMK A01 T01231130  RH  016%=      5-min Rain = 0
KDO1 012134Z 04003KT 12/M13 A3035 RMK A01 T01211134  RH  015%=      5-min Rain = 0
KDO1 012135Z 05001KT 12/M14 A3035 RMK A01 T01201136  RH  015%=      5-min Rain = 0
KDO1 012136Z 06001KT 12/M14 A3035 RMK A01 T01201136  RH  015%=      5-min Rain = 0
KDO1 012137Z 04003KT 12/M13 A3035 RMK A01 T01201132  RH  016%=      5-min Rain = 0
KDO1 012138Z 05002KT 12/M14 A3035 RMK A01 T01211135  RH  015%=      5-min Rain = 0
KDO1 012139Z 06005KT 12/M13 A3035 RMK A01 T01211130  RH  016%=      5-min Rain = 0
KDO1 012140Z 05005KT 12/M12 A3035 RMK A01 T01231123  RH  017%=      5-min Rain = 0
KDO1 012141Z 07005KT 13/M12 A3035 RMK A01 T01251123  RH  017%=      5-min Rain = 0
KDO1 012142Z 07004KT 13/M13 A3035 RMK A01 T01251127  RH  016%=      5-min Rain = 0
KDO1 012143Z 09005KT 13/M13 A3034 RMK A01 T01251126  RH  016%=      5-min Rain = 0
KDO1 012144Z 10005KT 12/M12 A3034 RMK A01 T01241124  RH  016%=      5-min Rain = 0
KDO1 012145Z 07007KT 13/M12 A3034 RMK A01 T01261118  RH  017%=      5-min Rain = 0
KDO1 012146Z 03008KT 13/M12 A3034 RMK A01 T01271120  RH  017%=      5-min Rain = 0
KDO1 012147Z 02009KT 13/M12 A3034 RMK A01 T01261122  RH  017%=      5-min Rain = 0
KDO1 012148Z 02009KT 12/M12 A3034 RMK A01 T01241124  RH  016%=      5-min Rain = 0
KDO1 012149Z 01009KT 12/M13 A3034 RMK A01 T01241125  RH  016%=      5-min Rain = 0
KDO1 012150Z 02007KT 12/M13 A3034 RMK A01 T01231125  RH  016%=      5-min Rain = 0
KDO1 012151Z 01006KT 12/M12 A3034 RMK A01 T01241118  RH  017%=      5-min Rain = 0
KDO1 012152Z 02007KT 13/M12 A3034 RMK A01 T01251124  RH  016%=      5-min Rain = 0
KDO1 012153Z 02005KT 12/M13 A3034 RMK A01 T01231126  RH  016%=      5-min Rain = 0
KDO1 012154Z 02007KT 12/M12 A3034 RMK A01 T01221124  RH  017%=      5-min Rain = 0
KDO1 012155Z 04003KT 12/M13 A3034 RMK A01 T01201130  RH  016%=      5-min Rain = 0
KDO1 012156Z 01002KT 12/M13 A3034 RMK A01 T01191129  RH  016%=      5-min Rain = 0
KDO1 012157Z 03003KT 12/M12 A3034 RMK A01 T01191123  RH  017%=      5-min Rain = 0
KDO1 012158Z 02003KT 12/M12 A3034 RMK A01 T01211119  RH  018%=      5-min Rain = 0
KDO1 012159Z 00003KT 12/M12 A3034 RMK A01 T01231123  RH  017%=      5-min Rain = 0
KDO1 012200Z 08002KT 12/M13 A3034 RMK A01 T01231125  RH  016%=      5-min Rain = 0
KDO1 012201Z 09003KT 12/M12 A3034 RMK A01 T01231123  RH  017%=      5-min Rain = 0
KDO1 012202Z 07005KT 12/M13 A3034 RMK A01 T01241125  RH  016%=      5-min Rain = 0
KDO1 012203Z 03007KT 13/M12 A3034 RMK A01 T01251120  RH  017%=      5-min Rain = 0
KDO1 012204Z 05006KT 13/M12 A3034 RMK A01 T01261123  RH  016%=      5-min Rain = 0
KDO1 012205Z 06007KT 13/M12 A3034 RMK A01 T01271119  RH  017%=      5-min Rain = 0
KDO1 012206Z 06007KT 13/M12 A3034 RMK A01 T01281118  RH  017%=      5-min Rain = 0
KDO1 012207Z 05005KT 13/M12 A3034 RMK A01 T01291119  RH  017%=      5-min Rain = 0
KDO1 012208Z 05003KT 13/M12 A3034 RMK A01 T01291124  RH  016%=      5-min Rain = 0
KDO1 012209Z 04004KT 13/M13 A3034 RMK A01 T01271125  RH  016%=      5-min Rain = 0
KDO1 012210Z 05006KT 13/M12 A3034 RMK A01 T01271122  RH  016%=      5-min Rain = 0
KDO1 012211Z 06007KT 13/M12 A3034 RMK A01 T01271123  RH  016%=      5-min Rain = 0
KDO1 012212Z 07005KT 13/M13 A3034 RMK A01 T01261126  RH  016%=      5-min Rain = 0
KDO1 012213Z 07004KT 13/M13 A3034 RMK A01 T01251126  RH  016%=      5-min Rain = 0
KDO1 012214Z 04004KT 12/M13 A3034 RMK A01 T01241127  RH  016%=      5-min Rain = 0
KDO1 012215Z 32001KT 12/M13 A3034 RMK A01 T01221129  RH  016%=      5-min Rain = 0
KDO1 012216Z 04002KT 12/M13 A3034 RMK A01 T01221125  RH  017%=      5-min Rain = 0
KDO1 012217Z 02002KT 12/M12 A3034 RMK A01 T01221122  RH  017%=      5-min Rain = 0
KDO1 012218Z 03006KT 12/M12 A3034 RMK A01 T01231117  RH  018%=      5-min Rain = 0
KDO1 012219Z 04005KT 12/M12 A3034 RMK A01 T01241121  RH  017%=      5-min Rain = 0
KDO1 012220Z 02003KT 12/M12 A3034 RMK A01 T01241121  RH  017%=      5-min Rain = 0
KDO1 012221Z 04004KT 12/M12 A3034 RMK A01 T01241120  RH  017%=      5-min Rain = 0
KDO1 012222Z 05003KT 13/M12 A3034 RMK A01 T01251120  RH  017%=      5-min Rain = 0
KDO1 012223Z 07003KT 13/M12 A3034 RMK A01 T01261120  RH  017%=      5-min Rain = 0
KDO1 012224Z 09007KT 13/M12 A3034 RMK A01 T01271119  RH  017%=      5-min Rain = 0
KDO1 012225Z 08005KT 13/M13 A3034 RMK A01 T01271126  RH  016%=      5-min Rain = 0
KDO1 012226Z 06001KT 13/M13 A3034 RMK A01 T01251127  RH  016%=      5-min Rain = 0
KDO1 012227Z 11001KT 12/M12 A3034 RMK A01 T01241124  RH  016%=      5-min Rain = 0
KDO1 012228Z 08002KT 13/M13 A3034 RMK A01 T01251126  RH  016%=      5-min Rain = 0
KDO1 012229Z 05002KT 13/M12 A3034 RMK A01 T01251124  RH  016%=      5-min Rain = 0
KDO1 012230Z 05006KT 13/M12 A3034 RMK A01 T01261120  RH  017%=      5-min Rain = 0
KDO1 012231Z 05004KT 13/M12 A3034 RMK A01 T01271123  RH  016%=      5-min Rain = 0
KDO1 012232Z 03003KT 13/M12 A3034 RMK A01 T01261124  RH  016%=      5-min Rain = 0
KDO1 012233Z 01004KT 13/M12 A3034 RMK A01 T01251120  RH  017%=      5-min Rain = 0
KDO1 012234Z 02003KT 13/M12 A3034 RMK A01 T01261121  RH  017%=      5-min Rain = 0
KDO1 012235Z 00002KT 13/M13 A3034 RMK A01 T01251125  RH  016%=      5-min Rain = 0
KDO1 012236Z 02001KT 12/M12 A3034 RMK A01 T01241124  RH  017%=      5-min Rain = 0
KDO1 012237Z 03000KT 12/M13 A3034 RMK A01 T01231126  RH  016%=      5-min Rain = 0
KDO1 012238Z 09001KT 12/M12 A3034 RMK A01 T01241120  RH  017%=      5-min Rain = 0
KDO1 012239Z 10003KT 13/M12 A3034 RMK A01 T01261119  RH  017%=      5-min Rain = 0
KDO1 012240Z 11002KT 13/M12 A3034 RMK A01 T01261119  RH  017%=      5-min Rain = 0
KDO1 012241Z 12001KT 13/M12 A3034 RMK A01 T01261121  RH  017%=      5-min Rain = 0
KDO1 012242Z 11001KT 13/M12 A3034 RMK A01 T01261124  RH  016%=      5-min Rain = 0
KDO1 012243Z 13001KT 13/M13 A3034 RMK A01 T01251127  RH  016%=      5-min Rain = 0
KDO1 012244Z 11003KT 13/M12 A3034 RMK A01 T01251124  RH  016%=      5-min Rain = 0
KDO1 012245Z 12001KT 12/M12 A3033 RMK A01 T01241124  RH  016%=      5-min Rain = 0
KDO1 012246Z 13001KT 12/M12 A3033 RMK A01 T01241124  RH  016%=      5-min Rain = 0
KDO1 012247Z 12001KT 12/M12 A3034 RMK A01 T01241120  RH  017%=      5-min Rain = 0
KDO1 012248Z 00001KT 13/M11 A3034 RMK A01 T01251114  RH  018%=      5-min Rain = 0
KDO1 012249Z 34000KT 13/M12 A3034 RMK A01 T01251122  RH  017%=      5-min Rain = 0
KDO1 012250Z 00000KT 13/M12 A3033 RMK A01 T01251122  RH  017%=      5-min Rain = 0
KDO1 012251Z 01000KT 13/M12 A3033 RMK A01 T01251123  RH  016%=      5-min Rain = 0
KDO1 012252Z 02001KT 12/M12 A3033 RMK A01 T01241124  RH  016%=      5-min Rain = 0
KDO1 012253Z 36003KT 12/M12 A3033 RMK A01 T01241124  RH  016%=      5-min Rain = 0
KDO1 012254Z 00002KT 13/M12 A3033 RMK A01 T01251117  RH  017%=      5-min Rain = 0
KDO1 012255Z 02005KT 13/M12 A3033 RMK A01 T01261117  RH  017%=      5-min Rain = 0
KDO1 012256Z 02004KT 13/M12 A3033 RMK A01 T01261121  RH  017%=      5-min Rain = 0
KDO1 012257Z 05003KT 13/M12 A3033 RMK A01 T01261123  RH  016%=      5-min Rain = 0
KDO1 012258Z 06002KT 13/M12 A3033 RMK A01 T01261124  RH  016%=      5-min Rain = 0
KDO1 012259Z 05002KT 13/M13 A3033 RMK A01 T01261126  RH  016%=      5-min Rain = 0
KDO1 012300Z 02002KT 13/M12 A3033 RMK A01 T01261124  RH  016%=      5-min Rain = 0
KDO1 012301Z 34001KT 13/M12 A3033 RMK A01 T01261118  RH  017%=      5-min Rain = 0
KDO1 012302Z 33002KT 13/M12 A3033 RMK A01 T01271119  RH  017%=      5-min Rain = 0
KDO1 012303Z 36006KT 13/M11 A3033 RMK A01 T01281113  RH  018%=      5-min Rain = 0
KDO1 012304Z 01004KT 13/M12 A3033 RMK A01 T01291115  RH  017%=      5-min Rain = 0
KDO1 012305Z 33005KT 13/M12 A3033 RMK A01 T01291117  RH  017%=      5-min Rain = 0
KDO1 012306Z 32005KT 13/M12 A3033 RMK A01 T01281117  RH  017%=      5-min Rain = 0
KDO1 012307Z 35003KT 13/M12 A3033 RMK A01 T01271121  RH  017%=      5-min Rain = 0
KDO1 012308Z 03004KT 13/M12 A3033 RMK A01 T01251117  RH  017%=      5-min Rain = 0
KDO1 012309Z 03005KT 13/M12 A3033 RMK A01 T01251121  RH  017%=      5-min Rain = 0
KDO1 012310Z 03005KT 12/M12 A3033 RMK A01 T01241122  RH  017%=      5-min Rain = 0
KDO1 012311Z 03005KT 12/M12 A3033 RMK A01 T01231123  RH  017%=      5-min Rain = 0
KDO1 012312Z 02004KT 12/M12 A3033 RMK A01 T01221124  RH  017%=      5-min Rain = 0
KDO1 012313Z 04004KT 12/M12 A3033 RMK A01 T01221122  RH  017%=      5-min Rain = 0
KDO1 012314Z 05002KT 12/M13 A3033 RMK A01 T01221126  RH  016%=      5-min Rain = 0
KDO1 012315Z 09002KT 12/M13 A3033 RMK A01 T01211125  RH  017%=      5-min Rain = 0
KDO1 012316Z 09002KT 12/M13 A3033 RMK A01 T01211126  RH  017%=      5-min Rain = 0
KDO1 012317Z 04002KT 12/M12 A3033 RMK A01 T01211123  RH  017%=      5-min Rain = 0
KDO1 012318Z 03003KT 12/M12 A3033 RMK A01 T01221123  RH  017%=      5-min Rain = 0
KDO1 012319Z 01002KT 12/M12 A3033 RMK A01 T01221122  RH  017%=      5-min Rain = 0
KDO1 012320Z 33001KT 12/M13 A3033 RMK A01 T01221129  RH  016%=      5-min Rain = 0
KDO1 012321Z 25001KT 12/M13 A3033 RMK A01 T01231130  RH  016%=      5-min Rain = 0
KDO1 012322Z 25001KT 12/M13 A3033 RMK A01 T01231129  RH  016%=      5-min Rain = 0
KDO1 012323Z 26000KT 12/M13 A3033 RMK A01 T01241126  RH  016%=      5-min Rain = 0
KDO1 012324Z 28000KT 13/M13 A3033 RMK A01 T01251128  RH  016%=      5-min Rain = 0
KDO1 012325Z 00000KT 13/M13 A3033 RMK A01 T01271129  RH  015%=      5-min Rain = 0
KDO1 012326Z 00000KT 13/M13 A3033 RMK A01 T01291127  RH  016%=      5-min Rain = 0
KDO1 012327Z 05000KT 13/M13 A3033 RMK A01 T01311125  RH  016%=      5-min Rain = 0
KDO1 012328Z 04002KT 13/M13 A3033 RMK A01 T01311126  RH  015%=      5-min Rain = 0
KDO1 012329Z 36003KT 13/M13 A3033 RMK A01 T01281128  RH  016%=      5-min Rain = 0
KDO1 012330Z 34003KT 13/M12 A3033 RMK A01 T01251122  RH  017%=      5-min Rain = 0
KDO1 012331Z 35002KT 12/M12 A3033 RMK A01 T01241117  RH  017%=      5-min Rain = 0
KDO1 012332Z 05002KT 12/M12 A3033 RMK A01 T01231117  RH  017%=      5-min Rain = 0
KDO1 012333Z 07002KT 12/M12 A3033 RMK A01 T01231121  RH  017%=      5-min Rain = 0
KDO1 012334Z 06001KT 12/M12 A3033 RMK A01 T01231123  RH  017%=      5-min Rain = 0
KDO1 012335Z 12000KT 12/M13 A3033 RMK A01 T01221128  RH  016%=      5-min Rain = 0
KDO1 012336Z 09001KT 12/M13 A3033 RMK A01 T01221130  RH  016%=      5-min Rain = 0
KDO1 012337Z 05002KT 12/M13 A3033 RMK A01 T01221130  RH  016%=      5-min Rain = 0
KDO1 012338Z 04003KT 12/M13 A3033 RMK A01 T01211133  RH  016%=      5-min Rain = 0
KDO1 012339Z 03003KT 12/M13 A3033 RMK A01 T01201132  RH  016%=      5-min Rain = 0
KDO1 012340Z 05003KT 12/M13 A3033 RMK A01 T01191126  RH  017%=      5-min Rain = 0
KDO1 012341Z 05003KT 12/M12 A3033 RMK A01 T01191121  RH  017%=      5-min Rain = 0
KDO1 012342Z 06005KT 12/M12 A3033 RMK A01 T01191123  RH  017%=      5-min Rain = 0
KDO1 012343Z 06005KT 12/M12 A3033 RMK A01 T01191124  RH  017%=      5-min Rain = 0
KDO1 012344Z 06005KT 12/M12 A3033 RMK A01 T01181123  RH  017%=      5-min Rain = 0
KDO1 012345Z 05005KT 12/M12 A3033 RMK A01 T01181122  RH  017%=      5-min Rain = 0
KDO1 012346Z 05004KT 12/M13 A3033 RMK A01 T01181127  RH  017%=      5-min Rain = 0
KDO1 012347Z 05003KT 12/M13 A3033 RMK A01 T01181126  RH  017%=      5-min Rain = 0
KDO1 012348Z 07003KT 12/M13 A3033 RMK A01 T01181125  RH  017%=      5-min Rain = 0
KDO1 012349Z 06003KT 12/M13 A3033 RMK A01 T01181125  RH  017%=      5-min Rain = 0
KDO1 012350Z 05004KT 12/M12 A3033 RMK A01 T01181123  RH  017%=      5-min Rain = 0
KDO1 012351Z 04004KT 12/M12 A3033 RMK A01 T01181123  RH  017%=      5-min Rain = 0
KDO1 012352Z 04003KT 12/M12 A3033 RMK A01 T01171123  RH  017%=      5-min Rain = 0
KDO1 012353Z 05003KT 12/M12 A3033 RMK A01 T01171119  RH  018%=      5-min Rain = 0
KDO1 012354Z 05003KT 12/M12 A3033 RMK A01 T01161117  RH  018%=      5-min Rain = 0
KDO1 012355Z 03002KT 12/M12 A3033 RMK A01 T01161115  RH  019%=      5-min Rain = 0
KDO1 012356Z 03003KT 12/M12 A3033 RMK A01 T01151116  RH  019%=      5-min Rain = 0
KDO1 012357Z 05002KT 12/M12 A3033 RMK A01 T01151117  RH  019%=      5-min Rain = 0
KDO1 012358Z 04002KT 12/M12 A3033 RMK A01 T01151117  RH  018%=      5-min Rain = 0
KDO1 012359Z 04002KT 11/M12 A3033 RMK A01 T01141120  RH  018%=      5-min Rain = 0
KDO1 020000Z 04003KT 11/M12 A3033 RMK A01 T01141122  RH  018%=      5-min Rain = 0
KDO1 020001Z 04002KT 11/M12 A3033 RMK A01 T01141122  RH  018%=      5-min Rain = 0
KDO1 020002Z 04002KT 11/M12 A3033 RMK A01 T01141121  RH  018%=      5-min Rain = 0
KDO1 020003Z 05002KT 11/M12 A3033 RMK A01 T01141124  RH  018%=      5-min Rain = 0
KDO1 020004Z 05002KT 11/M13 A3033 RMK A01 T01141125  RH  017%=      5-min Rain = 0
KDO1 020005Z 05002KT 11/M12 A3033 RMK A01 T01141122  RH  018%=      5-min Rain = 0
KDO1 020006Z 05002KT 11/M13 A3033 RMK A01 T01141125  RH  017%=      5-min Rain = 0
KDO1 020007Z 05001KT 11/M13 A3033 RMK A01 T01141126  RH  017%=      5-min Rain = 0
KDO1 020008Z 05002KT 11/M12 A3033 RMK A01 T01141124  RH  018%=      5-min Rain = 0
KDO1 020009Z 05001KT 12/M12 A3033 RMK A01 T01151122  RH  018%=      5-min Rain = 0
KDO1 020010Z 06001KT 12/M12 A3033 RMK A01 T01151122  RH  018%=      5-min Rain = 0
KDO1 020011Z 06002KT 12/M12 A3033 RMK A01 T01151121  RH  018%=      5-min Rain = 0
KDO1 020012Z 07002KT 12/M12 A3033 RMK A01 T01151120  RH  018%=      5-min Rain = 0
KDO1 020013Z 07002KT 12/M12 A3033 RMK A01 T01151117  RH  018%=      5-min Rain = 0
KDO1 020014Z 07002KT 12/M12 A3033 RMK A01 T01151117  RH  018%=      5-min Rain = 0
KDO1 020015Z 08003KT 12/M12 A3033 RMK A01 T01151117  RH  018%=      5-min Rain = 0
KDO1 020016Z 09003KT 12/M12 A3033 RMK A01 T01151119  RH  018%=      5-min Rain = 0
KDO1 020017Z 08003KT 11/M12 A3033 RMK A01 T01141115  RH  019%=      5-min Rain = 0
KDO1 020018Z 09004KT 11/M12 A3034 RMK A01 T01131116  RH  019%=      5-min Rain = 0
KDO1 020019Z 10003KT 11/M11 A3034 RMK A01 T01121113  RH  019%=      5-min Rain = 0
KDO1 020020Z 10003KT 11/M12 A3034 RMK A01 T01111116  RH  019%=      5-min Rain = 0
KDO1 020021Z 10002KT 11/M12 A3034 RMK A01 T01101115  RH  019%=      5-min Rain = 0
KDO1 020022Z 10001KT 11/M11 A3034 RMK A01 T01101112  RH  020%=      5-min Rain = 0
KDO1 020023Z 11002KT 11/M11 A3034 RMK A01 T01101113  RH  020%=      5-min Rain = 0
KDO1 020024Z 11002KT 11/M11 A3034 RMK A01 T01091114  RH  020%=      5-min Rain = 0
KDO1 020025Z 12002KT 11/M11 A3034 RMK A01 T01091114  RH  020%=      5-min Rain = 0
KDO1 020026Z 13002KT 11/M11 A3034 RMK A01 T01091111  RH  020%=      5-min Rain = 0
KDO1 020027Z 13002KT 11/M11 A3034 RMK A01 T01081110  RH  020%=      5-min Rain = 0
KDO1 020028Z 13003KT 11/M11 A3034 RMK A01 T01081109  RH  021%=      5-min Rain = 0
KDO1 020029Z 13003KT 11/M11 A3034 RMK A01 T01071108  RH  021%=      5-min Rain = 0
KDO1 020030Z 12003KT 11/M11 A3034 RMK A01 T01051109  RH  021%=      5-min Rain = 0
KDO1 020031Z 13003KT 10/M11 A3034 RMK A01 T01041108  RH  021%=      5-min Rain = 0
KDO1 020032Z 13003KT 10/M11 A3034 RMK A01 T01041107  RH  022%=      5-min Rain = 0
KDO1 020033Z 13003KT 10/M11 A3034 RMK A01 T01021109  RH  021%=      5-min Rain = 0
KDO1 020034Z 14003KT 10/M11 A3034 RMK A01 T01011109  RH  021%=      5-min Rain = 0
KDO1 020035Z 14003KT 10/M11 A3034 RMK A01 T01011110  RH  021%=      5-min Rain = 0
KDO1 020036Z 15003KT 10/M11 A3034 RMK A01 T01001111  RH  021%=      5-min Rain = 0
KDO1 020037Z 14003KT 10/M11 A3034 RMK A01 T01001110  RH  022%=      5-min Rain = 0
KDO1 020038Z 14003KT 10/M11 A3034 RMK A01 T00991112  RH  021%=      5-min Rain = 0
KDO1 020039Z 15003KT 10/M11 A3034 RMK A01 T00991113  RH  021%=      5-min Rain = 0
KDO1 020040Z 15003KT 10/M11 A3034 RMK A01 T00991113  RH  021%=      5-min Rain = 0
KDO1 020041Z 15003KT 10/M11 A3034 RMK A01 T00991114  RH  021%=      5-min Rain = 0
KDO1 020042Z 15003KT 10/M12 A3034 RMK A01 T00991116  RH  021%=      5-min Rain = 0
KDO1 020043Z 16003KT 10/M12 A3034 RMK A01 T00991115  RH  021%=      5-min Rain = 0
KDO1 020044Z 17003KT 10/M12 A3034 RMK A01 T00991115  RH  021%=      5-min Rain = 0
KDO1 020045Z 17004KT 10/M12 A3034 RMK A01 T00991115  RH  021%=      5-min Rain = 0
KDO1 020046Z 16004KT 10/M11 A3034 RMK A01 T00991113  RH  021%=      5-min Rain = 0
KDO1 020047Z 16004KT 10/M11 A3034 RMK A01 T00981113  RH  021%=      5-min Rain = 0
KDO1 020048Z 16004KT 10/M11 A3034 RMK A01 T00981112  RH  022%=      5-min Rain = 0
KDO1 020049Z 16003KT 10/M11 A3034 RMK A01 T00971111  RH  022%=      5-min Rain = 0
KDO1 020050Z 15002KT 10/M11 A3034 RMK A01 T00961109  RH  022%=      5-min Rain = 0
KDO1 020051Z 15002KT 10/M11 A3034 RMK A01 T00951110  RH  022%=      5-min Rain = 0
KDO1 020052Z 16001KT 09/M11 A3034 RMK A01 T00941111  RH  022%=      5-min Rain = 0
KDO1 020053Z 16002KT 09/M11 A3034 RMK A01 T00931112  RH  022%=      5-min Rain = 0
KDO1 020054Z 16003KT 09/M11 A3034 RMK A01 T00921112  RH  022%=      5-min Rain = 0
KDO1 020055Z 16004KT 09/M11 A3034 RMK A01 T00921112  RH  022%=      5-min Rain = 0
KDO1 020056Z 15004KT 09/M11 A3034 RMK A01 T00921112  RH  022%=      5-min Rain = 0
KDO1 020057Z 16004KT 09/M11 A3034 RMK A01 T00921111  RH  023%=      5-min Rain = 0
KDO1 020058Z 16004KT 09/M11 A3034 RMK A01 T00921111  RH  023%=      5-min Rain = 0
KDO1 020059Z 17004KT 09/M11 A3034 RMK A01 T00921111  RH  023%=      5-min Rain = 0
KDO1 020100Z 17004KT 09/M11 A3034 RMK A01 T00911112  RH  023%=      5-min Rain = 0
KDO1 020101Z 17004KT 09/M11 A3034 RMK A01 T00911112  RH  023%=      5-min Rain = 0
KDO1 020102Z 17004KT 09/M11 A3034 RMK A01 T00911112  RH  023%=      5-min Rain = 0
KDO1 020103Z 17004KT 09/M11 A3034 RMK A01 T00901112  RH  023%=      5-min Rain = 0
KDO1 020104Z 17005KT 09/M11 A3034 RMK A01 T00901111  RH  023%=      5-min Rain = 0
KDO1 020105Z 16005KT 09/M11 A3034 RMK A01 T00901112  RH  023%=      5-min Rain = 0
KDO1 020106Z 16004KT 09/M11 A3034 RMK A01 T00891111  RH  023%=      5-min Rain = 0
KDO1 020107Z 16004KT 09/M11 A3034 RMK A01 T00891110  RH  023%=      5-min Rain = 0
KDO1 020108Z 16004KT 09/M11 A3034 RMK A01 T00891110  RH  023%=      5-min Rain = 0
KDO1 020109Z 16004KT 09/M11 A3034 RMK A01 T00881110  RH  023%=      5-min Rain = 0
KDO1 020110Z 16005KT 09/M11 A3034 RMK A01 T00871111  RH  024%=      5-min Rain = 0
KDO1 020111Z 16005KT 09/M11 A3034 RMK A01 T00861110  RH  024%=      5-min Rain = 0
KDO1 020112Z 16005KT 09/M11 A3034 RMK A01 T00851111  RH  024%=      5-min Rain = 0
KDO1 020113Z 16005KT 08/M11 A3034 RMK A01 T00841111  RH  024%=      5-min Rain = 0
KDO1 020114Z 16004KT 08/M11 A3034 RMK A01 T00831112  RH  024%=      5-min Rain = 0
KDO1 020115Z 16004KT 08/M11 A3034 RMK A01 T00831112  RH  024%=      5-min Rain = 0
KDO1 020116Z 15003KT 08/M11 A3034 RMK A01 T00831111  RH  024%=      5-min Rain = 0
KDO1 020117Z 14002KT 08/M11 A3034 RMK A01 T00831109  RH  024%=      5-min Rain = 0
KDO1 020118Z 13002KT 08/M11 A3034 RMK A01 T00821112  RH  024%=      5-min Rain = 0
KDO1 020119Z 13002KT 08/M11 A3034 RMK A01 T00811113  RH  024%=      5-min Rain = 0
KDO1 020120Z 13002KT 08/M11 A3034 RMK A01 T00811113  RH  024%=      5-min Rain = 0
KDO1 020121Z 15002KT 08/M11 A3034 RMK A01 T00811112  RH  024%=      5-min Rain = 0
KDO1 020122Z 17003KT 08/M11 A3034 RMK A01 T00801113  RH  024%=      5-min Rain = 0
KDO1 020123Z 19002KT 08/M11 A3034 RMK A01 T00801112  RH  024%=      5-min Rain = 0
KDO1 020124Z 16003KT 08/M11 A3034 RMK A01 T00791110  RH  025%=      5-min Rain = 0
KDO1 020125Z 17002KT 08/M11 A3034 RMK A01 T00781108  RH  025%=      5-min Rain = 0
KDO1 020126Z 17003KT 08/M11 A3034 RMK A01 T00771111  RH  025%=      5-min Rain = 0
KDO1 020127Z 16004KT 08/M11 A3034 RMK A01 T00771112  RH  025%=      5-min Rain = 0
KDO1 020128Z 16004KT 08/M11 A3034 RMK A01 T00781112  RH  025%=      5-min Rain = 0
KDO1 020129Z 17004KT 08/M11 A3034 RMK A01 T00791112  RH  024%=      5-min Rain = 0
KDO1 020130Z 17004KT 08/M11 A3034 RMK A01 T00801111  RH  025%=      5-min Rain = 0
KDO1 020131Z 17005KT 08/M11 A3034 RMK A01 T00791112  RH  024%=      5-min Rain = 0
KDO1 020132Z 17005KT 08/M11 A3034 RMK A01 T00791111  RH  025%=      5-min Rain = 0
KDO1 020133Z 17005KT 08/M11 A3034 RMK A01 T00791111  RH  025%=      5-min Rain = 0
KDO1 020134Z 17005KT 08/M11 A3034 RMK A01 T00781110  RH  025%=      5-min Rain = 0
KDO1 020135Z 17004KT 08/M11 A3034 RMK A01 T00771110  RH  025%=      5-min Rain = 0
KDO1 020136Z 17004KT 08/M11 A3034 RMK A01 T00761110  RH  025%=      5-min Rain = 0
KDO1 020137Z 17004KT 07/M11 A3034 RMK A01 T00741111  RH  026%=      5-min Rain = 0
KDO1 020138Z 17004KT 07/M11 A3034 RMK A01 T00731111  RH  026%=      5-min Rain = 0
KDO1 020139Z 17004KT 07/M11 A3034 RMK A01 T00731111  RH  026%=      5-min Rain = 0
KDO1 020140Z 17004KT 07/M11 A3034 RMK A01 T00721111  RH  026%=      5-min Rain = 0
KDO1 020141Z 17004KT 07/M11 A3034 RMK A01 T00721110  RH  026%=      5-min Rain = 0
KDO1 020142Z 17004KT 07/M11 A3034 RMK A01 T00721111  RH  026%=      5-min Rain = 0
KDO1 020143Z 17004KT 07/M11 A3034 RMK A01 T00711112  RH  026%=      5-min Rain = 0
KDO1 020144Z 17004KT 07/M11 A3034 RMK A01 T00721112  RH  026%=      5-min Rain = 0
KDO1 020145Z 17004KT 07/M11 A3034 RMK A01 T00721113  RH  026%=      5-min Rain = 0
KDO1 020146Z 18004KT 07/M11 A3034 RMK A01 T00721112  RH  026%=      5-min Rain = 0
KDO1 020147Z 18004KT 07/M11 A3034 RMK A01 T00721113  RH  026%=      5-min Rain = 0
KDO1 020148Z 18003KT 07/M11 A3034 RMK A01 T00721112  RH  026%=      5-min Rain = 0
KDO1 020149Z 19003KT 07/M11 A3034 RMK A01 T00711112  RH  026%=      5-min Rain = 0
KDO1 020150Z 19003KT 07/M11 A3034 RMK A01 T00711112  RH  026%=      5-min Rain = 0
KDO1 020151Z 18003KT 07/M11 A3034 RMK A01 T00701111  RH  026%=      5-min Rain = 0
KDO1 020152Z 18002KT 07/M11 A3034 RMK A01 T00701111  RH  026%=      5-min Rain = 0
KDO1 020153Z 18001KT 07/M11 A3034 RMK A01 T00691111  RH  026%=      5-min Rain = 0
KDO1 020154Z 18001KT 07/M11 A3034 RMK A01 T00681112  RH  026%=      5-min Rain = 0
KDO1 020155Z 18001KT 07/M11 A3034 RMK A01 T00671113  RH  026%=      5-min Rain = 0
KDO1 020156Z 18001KT 07/M11 A3034 RMK A01 T00671113  RH  026%=      5-min Rain = 0
KDO1 020157Z 18001KT 07/M11 A3034 RMK A01 T00651114  RH  027%=      5-min Rain = 0
KDO1 020158Z 18001KT 07/M11 A3034 RMK A01 T00651114  RH  027%=      5-min Rain = 0
KDO1 020159Z 17002KT 06/M12 A3034 RMK A01 T00641116  RH  026%=      5-min Rain = 0
KDO1 020200Z 18002KT 06/M12 A3034 RMK A01 T00621115  RH  027%=      5-min Rain = 0
KDO1 020201Z 17002KT 06/M11 A3034 RMK A01 T00611114  RH  027%=      5-min Rain = 0
KDO1 020202Z 17002KT 06/M11 A3034 RMK A01 T00611114  RH  027%=      5-min Rain = 0
KDO1 020203Z 18002KT 06/M11 A3034 RMK A01 T00611114  RH  027%=      5-min Rain = 0
KDO1 020204Z 17002KT 06/M11 A3034 RMK A01 T00601114  RH  027%=      5-min Rain = 0
KDO1 020205Z 17002KT 06/M11 A3034 RMK A01 T00601113  RH  028%=      5-min Rain = 0
KDO1 020206Z 17002KT 06/M11 A3034 RMK A01 T00601113  RH  028%=      5-min Rain = 0
KDO1 020207Z 17002KT 06/M11 A3034 RMK A01 T00601113  RH  028%=      5-min Rain = 0
KDO1 020208Z 17002KT 06/M11 A3034 RMK A01 T00591113  RH  028%=      5-min Rain = 0
KDO1 020209Z 17002KT 06/M11 A3034 RMK A01 T00591114  RH  028%=      5-min Rain = 0
KDO1 020210Z 16002KT 06/M11 A3034 RMK A01 T00581113  RH  028%=      5-min Rain = 0
KDO1 020211Z 16003KT 06/M11 A3034 RMK A01 T00581114  RH  028%=      5-min Rain = 0
KDO1 020212Z 14002KT 06/M11 A3034 RMK A01 T00581114  RH  028%=      5-min Rain = 0
KDO1 020213Z 12003KT 06/M11 A3035 RMK A01 T00591113  RH  028%=      5-min Rain = 0
KDO1 020214Z 11003KT 06/M11 A3035 RMK A01 T00591111  RH  028%=      5-min Rain = 0
KDO1 020215Z 12003KT 06/M11 A3035 RMK A01 T00551107  RH  030%=      5-min Rain = 0
KDO1 020216Z 14003KT 05/M11 A3035 RMK A01 T00521110  RH  030%=      5-min Rain = 0
KDO1 020217Z 15004KT 05/M11 A3035 RMK A01 T00511111  RH  030%=      5-min Rain = 0
KDO1 020218Z 15004KT 05/M11 A3035 RMK A01 T00511112  RH  030%=      5-min Rain = 0
KDO1 020219Z 15004KT 05/M11 A3034 RMK A01 T00511112  RH  030%=      5-min Rain = 0
KDO1 020220Z 16004KT 05/M11 A3034 RMK A01 T00511112  RH  030%=      5-min Rain = 0
KDO1 020221Z 16005KT 05/M11 A3034 RMK A01 T00521111  RH  030%=      5-min Rain = 0
KDO1 020222Z 16005KT 05/M11 A3035 RMK A01 T00531112  RH  029%=      5-min Rain = 0
KDO1 020223Z 16005KT 06/M11 A3035 RMK A01 T00561113  RH  029%=      5-min Rain = 0
KDO1 020224Z 16004KT 06/M11 A3035 RMK A01 T00571113  RH  028%=      5-min Rain = 0
KDO1 020225Z 16004KT 06/M11 A3035 RMK A01 T00581113  RH  028%=      5-min Rain = 0
KDO1 020226Z 16005KT 06/M11 A3035 RMK A01 T00591113  RH  028%=      5-min Rain = 0
KDO1 020227Z 17005KT 06/M11 A3035 RMK A01 T00591114  RH  028%=      5-min Rain = 0
KDO1 020228Z 17005KT 06/M11 A3035 RMK A01 T00581114  RH  028%=      5-min Rain = 0
KDO1 020229Z 18005KT 06/M11 A3035 RMK A01 T00591113  RH  028%=      5-min Rain = 0
KDO1 020230Z 18005KT 06/M11 A3035 RMK A01 T00581112  RH  028%=      5-min Rain = 0
KDO1 020231Z 19005KT 06/M11 A3035 RMK A01 T00571113  RH  028%=      5-min Rain = 0
KDO1 020232Z 19005KT 06/M11 A3035 RMK A01 T00561113  RH  028%=      5-min Rain = 0
KDO1 020233Z 20005KT 06/M11 A3035 RMK A01 T00561113  RH  029%=      5-min Rain = 0
KDO1 020234Z 21005KT 06/M11 A3035 RMK A01 T00551113  RH  029%=      5-min Rain = 0
KDO1 020235Z 21004KT 05/M11 A3035 RMK A01 T00541112  RH  029%=      5-min Rain = 0
KDO1 020236Z 21004KT 05/M11 A3035 RMK A01 T00531112  RH  029%=      5-min Rain = 0
KDO1 020237Z 20004KT 05/M11 A3035 RMK A01 T00531111  RH  029%=      5-min Rain = 0
KDO1 020238Z 21004KT 05/M11 A3035 RMK A01 T00531112  RH  029%=      5-min Rain = 0
KDO1 020239Z 21005KT 05/M11 A3035 RMK A01 T00531111  RH  030%=      5-min Rain = 0
KDO1 020240Z 20005KT 05/M11 A3035 RMK A01 T00531110  RH  030%=      5-min Rain = 0
KDO1 020241Z 21005KT 05/M11 A3035 RMK A01 T00531109  RH  030%=      5-min Rain = 0
KDO1 020242Z 21005KT 05/M11 A3035 RMK A01 T00521109  RH  030%=      5-min Rain = 0
KDO1 020243Z 21005KT 05/M11 A3035 RMK A01 T00511109  RH  030%=      5-min Rain = 0
KDO1 020244Z 21004KT 05/M11 A3035 RMK A01 T00511109  RH  030%=      5-min Rain = 0
KDO1 020245Z 21004KT 05/M11 A3035 RMK A01 T00511110  RH  030%=      5-min Rain = 0
KDO1 020246Z 22004KT 05/M11 A3035 RMK A01 T00511111  RH  030%=      5-min Rain = 0
KDO1 020247Z 21004KT 05/M11 A3035 RMK A01 T00511111  RH  030%=      5-min Rain = 0
KDO1 020248Z 22004KT 05/M11 A3035 RMK A01 T00511111  RH  030%=      5-min Rain = 0
KDO1 020249Z 21004KT 05/M11 A3035 RMK A01 T00511111  RH  030%=      5-min Rain = 0
KDO1 020250Z 21005KT 05/M11 A3035 RMK A01 T00501111  RH  030%=      5-min Rain = 0
KDO1 020251Z 22004KT 05/M11 A3035 RMK A01 T00491112  RH  030%=      5-min Rain = 0
KDO1 020252Z 22004KT 05/M11 A3035 RMK A01 T00491112  RH  030%=      5-min Rain = 0
KDO1 020253Z 22005KT 05/M11 A3035 RMK A01 T00481112  RH  030%=      5-min Rain = 0
KDO1 020254Z 23005KT 05/M11 A3035 RMK A01 T00481113  RH  030%=      5-min Rain = 0
KDO1 020255Z 24005KT 05/M11 A3035 RMK A01 T00481112  RH  030%=      5-min Rain = 0
KDO1 020256Z 24006KT 05/M11 A3035 RMK A01 T00471112  RH  031%=      5-min Rain = 0
KDO1 020257Z 23006KT 05/M11 A3035 RMK A01 T00461112  RH  031%=      5-min Rain = 0
KDO1 020258Z 23006KT 05/M11 A3035 RMK A01 T00451111  RH  031%=      5-min Rain = 0
KDO1 020259Z 22006KT 04/M11 A3035 RMK A01 T00441112  RH  031%=      5-min Rain = 0
KDO1 020300Z 23006KT 04/M11 A3035 RMK A01 T00441112  RH  031%=      5-min Rain = 0
KDO1 020301Z 23005KT 04/M11 A3035 RMK A01 T00441112  RH  031%=      5-min Rain = 0
KDO1 020302Z 23006KT 04/M11 A3035 RMK A01 T00441113  RH  031%=      5-min Rain = 0
KDO1 020303Z 23006KT 05/M11 A3035 RMK A01 T00451112  RH  031%=      5-min Rain = 0
KDO1 020304Z 23006KT 04/M11 A3035 RMK A01 T00441112  RH  031%=      5-min Rain = 0
KDO1 020305Z 23006KT 04/M11 A3035 RMK A01 T00441112  RH  031%=      5-min Rain = 0
KDO1 020306Z 23006KT 04/M11 A3035 RMK A01 T00441112  RH  031%=      5-min Rain = 0
KDO1 020307Z 24006KT 04/M11 A3035 RMK A01 T00441112  RH  031%=      5-min Rain = 0
KDO1 020308Z 24006KT 04/M11 A3035 RMK A01 T00441112  RH  031%=      5-min Rain = 0
KDO1 020309Z 24006KT 04/M11 A3035 RMK A01 T00441112  RH  031%=      5-min Rain = 0
KDO1 020310Z 24006KT 04/M11 A3035 RMK A01 T00441114  RH  031%=      5-min Rain = 0
KDO1 020311Z 24006KT 04/M11 A3035 RMK A01 T00441114  RH  031%=      5-min Rain = 0
KDO1 020312Z 24006KT 04/M12 A3035 RMK A01 T00441115  RH  030%=      5-min Rain = 0
KDO1 020313Z 24006KT 05/M11 A3035 RMK A01 T00451114  RH  031%=      5-min Rain = 0
KDO1 020314Z 24007KT 05/M11 A3035 RMK A01 T00451113  RH  031%=      5-min Rain = 0
KDO1 020315Z 24007KT 05/M11 A3035 RMK A01 T00451113  RH  031%=      5-min Rain = 0
KDO1 020316Z 24007KT 05/M11 A3035 RMK A01 T00451112  RH  031%=      5-min Rain = 0
KDO1 020317Z 24006KT 04/M11 A3035 RMK A01 T00441112  RH  031%=      5-min Rain = 0
KDO1 020318Z 24006KT 04/M11 A3035 RMK A01 T00431112  RH  031%=      5-min Rain = 0
KDO1 020319Z 24006KT 04/M11 A3035 RMK A01 T00421113  RH  031%=      5-min Rain = 0
KDO1 020320Z 24006KT 04/M11 A3035 RMK A01 T00421113  RH  031%=      5-min Rain = 0
KDO1 020321Z 24006KT 04/M11 A3035 RMK A01 T00411114  RH  031%=      5-min Rain = 0
KDO1 020322Z 25006KT 04/M11 A3035 RMK A01 T00411113  RH  031%=      5-min Rain = 0
KDO1 020323Z 25006KT 04/M11 A3035 RMK A01 T00411114  RH  031%=      5-min Rain = 0
KDO1 020324Z 25006KT 04/M11 A3035 RMK A01 T00411113  RH  032%=      5-min Rain = 0
KDO1 020325Z 25007KT 04/M11 A3035 RMK A01 T00401112  RH  032%=      5-min Rain = 0
KDO1 020326Z 25006KT 04/M11 A3035 RMK A01 T00401111  RH  032%=      5-min Rain = 0
KDO1 020327Z 25006KT 04/M11 A3035 RMK A01 T00411109  RH  033%=      5-min Rain = 0
KDO1 020328Z 25006KT 04/M11 A3035 RMK A01 T00421108  RH  033%=      5-min Rain = 0
KDO1 020329Z 25005KT 04/M11 A3035 RMK A01 T00431107  RH  032%=      5-min Rain = 0
KDO1 020330Z 25006KT 04/M11 A3035 RMK A01 T00431108  RH  032%=      5-min Rain = 0
KDO1 020331Z 25006KT 04/M11 A3035 RMK A01 T00441108  RH  032%=      5-min Rain = 0
KDO1 020332Z 25006KT 05/M11 A3035 RMK A01 T00451108  RH  032%=      5-min Rain = 0
KDO1 020333Z 26005KT 05/M11 A3035 RMK A01 T00461107  RH  032%=      5-min Rain = 0
KDO1 020334Z 25005KT 05/M11 A3035 RMK A01 T00471107  RH  032%=      5-min Rain = 0
KDO1 020335Z 26005KT 05/M11 A3035 RMK A01 T00471107  RH  032%=      5-min Rain = 0
KDO1 020336Z 26005KT 05/M11 A3035 RMK A01 T00461107  RH  032%=      5-min Rain = 0
KDO1 020337Z 25005KT 05/M11 A3035 RMK A01 T00461107  RH  032%=      5-min Rain = 0
KDO1 020338Z 26005KT 05/M11 A3035 RMK A01 T00461107  RH  032%=      5-min Rain = 0
KDO1 020339Z 26005KT 05/M11 A3035 RMK A01 T00451108  RH  032%=      5-min Rain = 0
KDO1 020340Z 26005KT 05/M11 A3035 RMK A01 T00451108  RH  032%=      5-min Rain = 0
KDO1 020341Z 25005KT 04/M11 A3035 RMK A01 T00441108  RH  032%=      5-min Rain = 0
KDO1 020342Z 25004KT 04/M11 A3035 RMK A01 T00431108  RH  032%=      5-min Rain = 0
KDO1 020343Z 25004KT 04/M11 A3035 RMK A01 T00431108  RH  032%=      5-min Rain = 0
KDO1 020344Z 26005KT 04/M11 A3035 RMK A01 T00431108  RH  032%=      5-min Rain = 0
KDO1 020345Z 27004KT 04/M11 A3035 RMK A01 T00431107  RH  033%=      5-min Rain = 0
KDO1 020346Z 26005KT 04/M11 A3035 RMK A01 T00411107  RH  033%=      5-min Rain = 0
KDO1 020347Z 26006KT 04/M11 A3035 RMK A01 T00401106  RH  034%=      5-min Rain = 0
KDO1 020348Z 26006KT 04/M11 A3035 RMK A01 T00391106  RH  034%=      5-min Rain = 0
KDO1 020349Z 26006KT 04/M11 A3035 RMK A01 T00391105  RH  034%=      5-min Rain = 0
KDO1 020350Z 26006KT 04/M11 A3035 RMK A01 T00381105  RH  034%=      5-min Rain = 0
KDO1 020351Z 26006KT 04/M11 A3035 RMK A01 T00371105  RH  035%=      5-min Rain = 0
KDO1 020352Z 27006KT 04/M11 A3035 RMK A01 T00371105  RH  035%=      5-min Rain = 0
KDO1 020353Z 27006KT 04/M11 A3035 RMK A01 T00381105  RH  035%=      5-min Rain = 0
KDO1 020354Z 27006KT 04/M10 A3035 RMK A01 T00381104  RH  035%=      5-min Rain = 0
KDO1 020355Z 27006KT 04/M10 A3035 RMK A01 T00381104  RH  035%=      5-min Rain = 0
KDO1 020356Z 27007KT 04/M10 A3035 RMK A01 T00371104  RH  035%=      5-min Rain = 0
KDO1 020357Z 27006KT 04/M10 A3035 RMK A01 T00381104  RH  035%=      5-min Rain = 0
KDO1 020358Z 27006KT 04/M10 A3035 RMK A01 T00381104  RH  035%=      5-min Rain = 0
KDO1 020359Z 27006KT 04/M10 A3035 RMK A01 T00381103  RH  035%=      5-min Rain = 0
KDO1 020400Z 27007KT 04/M10 A3035 RMK A01 T00371103  RH  035%=      5-min Rain = 0
KDO1 020401Z 27007KT 04/M10 A3035 RMK A01 T00371104  RH  035%=      5-min Rain = 0
KDO1 020402Z 27007KT 04/M10 A3035 RMK A01 T00371104  RH  035%=      5-min Rain = 0
KDO1 020403Z 27007KT 04/M10 A3035 RMK A01 T00371103  RH  035%=      5-min Rain = 0
KDO1 020404Z 27007KT 04/M10 A3035 RMK A01 T00371103  RH  035%=      5-min Rain = 0
KDO1 020405Z 27007KT 04/M10 A3035 RMK A01 T00361102  RH  036%=      5-min Rain = 0
KDO1 020406Z 27007KT 04/M10 A3035 RMK A01 T00361101  RH  036%=      5-min Rain = 0
KDO1 020407Z 27007KT 04/M10 A3035 RMK A01 T00351102  RH  036%=      5-min Rain = 0
KDO1 020408Z 27007KT 04/M10 A3035 RMK A01 T00361103  RH  036%=      5-min Rain = 0
KDO1 020409Z 27007KT 04/M10 A3035 RMK A01 T00361103  RH  035%=      5-min Rain = 0
KDO1 020410Z 27007KT 04/M10 A3035 RMK A01 T00371103  RH  035%=      5-min Rain = 0
KDO1 020411Z 27007KT 04/M10 A3035 RMK A01 T00371103  RH  035%=      5-min Rain = 0
KDO1 020412Z 27007KT 04/M10 A3035 RMK A01 T00371103  RH  035%=      5-min Rain = 0
KDO1 020413Z 27007KT 04/M10 A3035 RMK A01 T00371102  RH  035%=      5-min Rain = 0
KDO1 020414Z 27007KT 04/M10 A3035 RMK A01 T00361102  RH  036%=      5-min Rain = 0
KDO1 020415Z 27007KT 04/M10 A3035 RMK A01 T00351102  RH  036%=      5-min Rain = 0
KDO1 020416Z 27007KT 04/M10 A3035 RMK A01 T00351101  RH  036%=      5-min Rain = 0
KDO1 020417Z 27007KT 04/M10 A3035 RMK A01 T00351101  RH  036%=      5-min Rain = 0
KDO1 020418Z 27007KT 04/M10 A3035 RMK A01 T00351101  RH  036%=      5-min Rain = 0
KDO1 020419Z 27007KT 04/M10 A3035 RMK A01 T00351101  RH  036%=      5-min Rain = 0
KDO1 020420Z 27007KT 04/M10 A3035 RMK A01 T00351101  RH  036%=      5-min Rain = 0
KDO1 020421Z 27008KT 04/M10 A3035 RMK A01 T00351101  RH  036%=      5-min Rain = 0
KDO1 020422Z 27008KT 04/M10 A3035 RMK A01 T00361102  RH  036%=      5-min Rain = 0
KDO1 020423Z 28007KT 04/M10 A3035 RMK A01 T00371102  RH  036%=      5-min Rain = 0
KDO1 020424Z 27008KT 04/M10 A3035 RMK A01 T00361102  RH  036%=      5-min Rain = 0
KDO1 020425Z 27008KT 04/M10 A3035 RMK A01 T00371103  RH  035%=      5-min Rain = 0
KDO1 020426Z 27007KT 04/M10 A3035 RMK A01 T00381102  RH  035%=      5-min Rain = 0
KDO1 020427Z 27007KT 04/M10 A3035 RMK A01 T00381103  RH  035%=      5-min Rain = 0
KDO1 020428Z 28008KT 04/M10 A3035 RMK A01 T00381103  RH  035%=      5-min Rain = 0
KDO1 020429Z 27008KT 04/M10 A3035 RMK A01 T00371104  RH  035%=      5-min Rain = 0
KDO1 020430Z 28008KT 04/M11 A3035 RMK A01 T00371105  RH  035%=      5-min Rain = 0
KDO1 020431Z 28008KT 04/M11 A3035 RMK A01 T00381105  RH  034%=      5-min Rain = 0
KDO1 020432Z 28008KT 04/M11 A3035 RMK A01 T00381105  RH  034%=      5-min Rain = 0
KDO1 020433Z 28008KT 04/M11 A3035 RMK A01 T00381106  RH  034%=      5-min Rain = 0
KDO1 020434Z 28008KT 04/M11 A3035 RMK A01 T00381106  RH  034%=      5-min Rain = 0
KDO1 020435Z 28008KT 04/M11 A3035 RMK A01 T00381106  RH  034%=      5-min Rain = 0
KDO1 020436Z 28007KT 04/M11 A3035 RMK A01 T00371106  RH  034%=      5-min Rain = 0
KDO1 020437Z 28008KT 04/M11 A3035 RMK A01 T00351106  RH  035%=      5-min Rain = 0
KDO1 020438Z 28007KT 03/M11 A3035 RMK A01 T00341106  RH  035%=      5-min Rain = 0
KDO1 020439Z 28007KT 03/M11 A3035 RMK A01 T00331106  RH  035%=      5-min Rain = 0
KDO1 020440Z 28008KT 03/M11 A3035 RMK A01 T00321106  RH  035%=      5-min Rain = 0
KDO1 020441Z 28007KT 03/M11 A3035 RMK A01 T00311106  RH  036%=      5-min Rain = 0
KDO1 020442Z 28007KT 03/M11 A3035 RMK A01 T00301106  RH  036%=      5-min Rain = 0
KDO1 020443Z 28008KT 03/M11 A3035 RMK A01 T00291106  RH  036%=      5-min Rain = 0
KDO1 020444Z 28007KT 03/M11 A3035 RMK A01 T00291106  RH  036%=      5-min Rain = 0
KDO1 020445Z 28007KT 03/M11 A3035 RMK A01 T00291105  RH  037%=      5-min Rain = 0
KDO1 020446Z 28008KT 03/M11 A3035 RMK A01 T00281105  RH  037%=      5-min Rain = 0
KDO1 020447Z 28007KT 03/M11 A3035 RMK A01 T00271105  RH  037%=      5-min Rain = 0
KDO1 020448Z 28008KT 03/M11 A3035 RMK A01 T00271105  RH  037%=      5-min Rain = 0
KDO1 020449Z 28007KT 03/M11 A3035 RMK A01 T00261106  RH  037%=      5-min Rain = 0
KDO1 020450Z 28007KT 03/M11 A3035 RMK A01 T00261105  RH  037%=      5-min Rain = 0
KDO1 020451Z 29007KT 03/M11 A3035 RMK A01 T00261105  RH  037%=      5-min Rain = 0
KDO1 020452Z 28007KT 03/M11 A3035 RMK A01 T00261105  RH  037%=      5-min Rain = 0
KDO1 020453Z 28007KT 03/M11 A3035 RMK A01 T00261106  RH  037%=      5-min Rain = 0
KDO1 020454Z 28008KT 03/M11 A3035 RMK A01 T00261106  RH  037%=      5-min Rain = 0
KDO1 020455Z 28008KT 03/M11 A3035 RMK A01 T00261106  RH  037%=      5-min Rain = 0
KDO1 020456Z 28008KT 03/M11 A3035 RMK A01 T00251106  RH  037%=      5-min Rain = 0
KDO1 020457Z 29008KT 03/M11 A3034 RMK A01 T00261106  RH  037%=      5-min Rain = 0
KDO1 020458Z 29009KT 03/M11 A3034 RMK A01 T00261106  RH  037%=      5-min Rain = 0
KDO1 020459Z 29009KT 03/M11 A3034 RMK A01 T00261106  RH  037%=      5-min Rain = 0
KDO1 020500Z 29008KT 03/M11 A3034 RMK A01 T00261105  RH  037%=      5-min Rain = 0
KDO1 020501Z 29009KT 03/M11 A3034 RMK A01 T00261105  RH  037%=      5-min Rain = 0
KDO1 020502Z 29008KT 03/M11 A3034 RMK A01 T00261105  RH  037%=      5-min Rain = 0
KDO1 020503Z 29008KT 03/M11 A3034 RMK A01 T00261105  RH  037%=      5-min Rain = 0
KDO1 020504Z 28009KT 03/M11 A3034 RMK A01 T00261105  RH  037%=      5-min Rain = 0
KDO1 020505Z 28008KT 03/M11 A3034 RMK A01 T00261106  RH  037%=      5-min Rain = 0
KDO1 020506Z 28009KT 03/M11 A3034 RMK A01 T00281106  RH  037%=      5-min Rain = 0
KDO1 020507Z 28008KT 03/M11 A3034 RMK A01 T00291106  RH  036%=      5-min Rain = 0
KDO1 020508Z 29008KT 03/M11 A3034 RMK A01 T00301106  RH  036%=      5-min Rain = 0
KDO1 020509Z 28008KT 03/M11 A3034 RMK A01 T00291106  RH  036%=      5-min Rain = 0
KDO1 020510Z 28007KT 03/M11 A3034 RMK A01 T00291107  RH  036%=      5-min Rain = 0
KDO1 020511Z 28008KT 03/M11 A3034 RMK A01 T00291107  RH  036%=      5-min Rain = 0
KDO1 020512Z 28008KT 03/M11 A3034 RMK A01 T00291107  RH  036%=      5-min Rain = 0
KDO1 020513Z 28007KT 03/M11 A3034 RMK A01 T00291108  RH  036%=      5-min Rain = 0
KDO1 020514Z 28008KT 03/M11 A3034 RMK A01 T00301108  RH  036%=      5-min Rain = 0
KDO1 020515Z 28007KT 03/M11 A3034 RMK A01 T00301107  RH  036%=      5-min Rain = 0
KDO1 020516Z 28007KT 03/M11 A3034 RMK A01 T00291108  RH  036%=      5-min Rain = 0
KDO1 020517Z 28008KT 03/M11 A3034 RMK A01 T00291108  RH  036%=      5-min Rain = 0
KDO1 020518Z 28007KT 03/M11 A3034 RMK A01 T00281108  RH  036%=      5-min Rain = 0
KDO1 020519Z 28008KT 03/M11 A3034 RMK A01 T00281108  RH  036%=      5-min Rain = 0
KDO1 020520Z 28007KT 03/M11 A3034 RMK A01 T00291109  RH  036%=      5-min Rain = 0
KDO1 020521Z 28007KT 03/M11 A3034 RMK A01 T00291108  RH  036%=      5-min Rain = 0
KDO1 020522Z 28007KT 03/M11 A3034 RMK A01 T00291108  RH  036%=      5-min Rain = 0
KDO1 020523Z 28006KT 03/M11 A3034 RMK A01 T00281109  RH  036%=      5-min Rain = 0
KDO1 020524Z 28007KT 03/M11 A3034 RMK A01 T00271109  RH  036%=      5-min Rain = 0
KDO1 020525Z 28006KT 03/M11 A3034 RMK A01 T00271109  RH  036%=      5-min Rain = 0
KDO1 020526Z 28006KT 03/M11 A3034 RMK A01 T00271108  RH  036%=      5-min Rain = 0
KDO1 020527Z 29006KT 03/M11 A3034 RMK A01 T00271108  RH  036%=      5-min Rain = 0
KDO1 020528Z 29006KT 03/M11 A3034 RMK A01 T00251109  RH  037%=      5-min Rain = 0
KDO1 020529Z 28006KT 03/M11 A3033 RMK A01 T00251108  RH  037%=      5-min Rain = 0
KDO1 020530Z 28005KT 02/M11 A3033 RMK A01 T00241108  RH  037%=      5-min Rain = 0
KDO1 020531Z 28005KT 02/M11 A3033 RMK A01 T00241108  RH  037%=      5-min Rain = 0
KDO1 020532Z 28005KT 02/M11 A3034 RMK A01 T00231108  RH  037%=      5-min Rain = 0
KDO1 020533Z 28005KT 02/M11 A3034 RMK A01 T00231108  RH  037%=      5-min Rain = 0
KDO1 020534Z 28005KT 02/M11 A3034 RMK A01 T00231108  RH  037%=      5-min Rain = 0
KDO1 020535Z 28005KT 02/M11 A3034 RMK A01 T00231108  RH  037%=      5-min Rain = 0
KDO1 020536Z 28005KT 02/M11 A3034 RMK A01 T00231108  RH  037%=      5-min Rain = 0
KDO1 020537Z 27005KT 02/M11 A3034 RMK A01 T00231108  RH  037%=      5-min Rain = 0
KDO1 020538Z 28005KT 02/M11 A3033 RMK A01 T00221108  RH  037%=      5-min Rain = 0
KDO1 020539Z 27006KT 02/M11 A3033 RMK A01 T00221108  RH  038%=      5-min Rain = 0
KDO1 020540Z 27006KT 02/M11 A3033 RMK A01 T00221107  RH  038%=      5-min Rain = 0
KDO1 020541Z 27006KT 02/M11 A3033 RMK A01 T00221107  RH  038%=      5-min Rain = 0
KDO1 020542Z 28006KT 02/M11 A3033 RMK A01 T00211108  RH  038%=      5-min Rain = 0
KDO1 020543Z 28005KT 02/M11 A3033 RMK A01 T00211108  RH  038%=      5-min Rain = 0
KDO1 020544Z 28005KT 02/M11 A3033 RMK A01 T00211108  RH  038%=      5-min Rain = 0
KDO1 020545Z 28005KT 02/M11 A3033 RMK A01 T00201108  RH  038%=      5-min Rain = 0
KDO1 020546Z 27005KT 02/M11 A3033 RMK A01 T00201108  RH  038%=      5-min Rain = 0
KDO1 020547Z 28005KT 02/M11 A3033 RMK A01 T00191108  RH  038%=      5-min Rain = 0
KDO1 020548Z 27004KT 02/M11 A3033 RMK A01 T00191107  RH  039%=      5-min Rain = 0
KDO1 020549Z 27004KT 02/M11 A3033 RMK A01 T00181108  RH  039%=      5-min Rain = 0
KDO1 020550Z 27004KT 02/M11 A3033 RMK A01 T00171108  RH  039%=      5-min Rain = 0
KDO1 020551Z 27004KT 02/M11 A3033 RMK A01 T00171108  RH  039%=      5-min Rain = 0
KDO1 020552Z 27004KT 02/M11 A3033 RMK A01 T00171107  RH  039%=      5-min Rain = 0
KDO1 020553Z 27005KT 02/M11 A3033 RMK A01 T00161107  RH  039%=      5-min Rain = 0
KDO1 020554Z 27005KT 02/M11 A3033 RMK A01 T00151107  RH  040%=      5-min Rain = 0
KDO1 020555Z 27005KT 01/M11 A3033 RMK A01 T00141108  RH  040%=      5-min Rain = 0
KDO1 020556Z 27005KT 02/M11 A3033 RMK A01 T00151107  RH  040%=      5-min Rain = 0
KDO1 020557Z 27005KT 02/M11 A3033 RMK A01 T00151107  RH  040%=      5-min Rain = 0
KDO1 020558Z 27005KT 02/M11 A3033 RMK A01 T00151108  RH  040%=      5-min Rain = 0
KDO1 020559Z 27005KT 02/M11 A3033 RMK A01 T00151108  RH  039%=      5-min Rain = 0

Page generated in 0.1842 seconds.